2016 Cux-Wetter.de -Die Nutzung der Wetterdaten nur mit ausdrcklicher Genehmigung
Wetterdaten: Donnerstag, 21.12.2017
Datum Zeit Temp. A. Feuchte A. Luftdruck Regen Wind Richtung Richtung Sonnenschein Solar Taupunkt Windchill Windben
21.12.2017 00:00 6,6 C 99 % 1029,2 hPa 0,0 l/m 12,1 km/h (2 Bft) SW 232 0 min 0 W/m 6,5 C 2,5 C 25,7 km/h (4 Bft)
21.12.2017 00:03 6,6 C 99 % 1029,2 hPa 0,0 l/m 11,1 km/h (2 Bft) S-SW 211 0 min 0 W/m 6,5 C 3,1 C 16,1 km/h (3 Bft)
21.12.2017 00:06 6,5 C 99 % 1029,1 hPa 0,0 l/m 12,3 km/h (2 Bft) W-SW 244 0 min 0 W/m 6,4 C 2,3 C 20,9 km/h (4 Bft)
21.12.2017 00:09 6,5 C 99 % 1029,1 hPa 0,0 l/m 12,7 km/h (3 Bft) SW 220 0 min 0 W/m 6,4 C 2,1 C 20,9 km/h (4 Bft)
21.12.2017 00:12 6,5 C 99 % 1029,1 hPa 0,0 l/m 12,8 km/h (3 Bft) SW 219 0 min 0 W/m 6,4 C 2,0 C 24,1 km/h (4 Bft)
21.12.2017 00:15 6,5 C 99 % 1029,1 hPa 0,0 l/m 13,7 km/h (3 Bft) W-SW 252 0 min 0 W/m 6,4 C 1,5 C 20,9 km/h (4 Bft)
21.12.2017 00:18 6,6 C 99 % 1029,0 hPa 0,0 l/m 11,8 km/h (2 Bft) S 190 0 min 0 W/m 6,5 C 2,7 C 19,3 km/h (3 Bft)
21.12.2017 00:21 6,6 C 99 % 1029,2 hPa 0,0 l/m 13,3 km/h (3 Bft) SW 228 0 min 0 W/m 6,5 C 1,9 C 19,3 km/h (3 Bft)
21.12.2017 00:24 6,6 C 99 % 1029,2 hPa 0,0 l/m 11,2 km/h (2 Bft) SW 232 0 min 0 W/m 6,5 C 3,1 C 20,9 km/h (4 Bft)
21.12.2017 00:27 6,7 C 99 % 1029,2 hPa 0,0 l/m 8,7 km/h (2 Bft) S-SW 209 0 min 0 W/m 6,6 C 4,9 C 14,5 km/h (3 Bft)
21.12.2017 00:30 6,6 C 99 % 1029,2 hPa 0,0 l/m 10,5 km/h (2 Bft) SW 234 0 min 0 W/m 6,5 C 3,5 C 17,7 km/h (3 Bft)
21.12.2017 00:33 6,6 C 99 % 1029,2 hPa 0,0 l/m 8,6 km/h (2 Bft) SW 232 0 min 0 W/m 6,5 C 4,8 C 16,1 km/h (3 Bft)
21.12.2017 00:36 6,6 C 99 % 1029,2 hPa 0,0 l/m 9,1 km/h (2 Bft) SW 235 0 min 0 W/m 6,5 C 4,5 C 14,5 km/h (3 Bft)
21.12.2017 00:39 6,5 C 99 % 1029,2 hPa 0,2 l/m 8,8 km/h (2 Bft) W 279 0 min 0 W/m 6,4 C 4,6 C 16,1 km/h (3 Bft)
21.12.2017 00:42 6,5 C 99 % 1029,2 hPa 0,0 l/m 6,5 km/h (2 Bft) SW 234 0 min 0 W/m 6,4 C 6,4 C 12,9 km/h (3 Bft)
21.12.2017 00:45 6,4 C 99 % 1029,1 hPa 0,0 l/m 10,4 km/h (2 Bft) SW 226 0 min 0 W/m 6,3 C 3,4 C 17,7 km/h (3 Bft)
21.12.2017 00:48 6,3 C 99 % 1029,1 hPa 0,0 l/m 9,9 km/h (2 Bft) SW 229 0 min 0 W/m 6,2 C 3,6 C 17,7 km/h (3 Bft)
21.12.2017 00:51 6,3 C 99 % 1029,1 hPa 0,0 l/m 8,8 km/h (2 Bft) W-SW 245 0 min 0 W/m 6,2 C 4,4 C 16,1 km/h (3 Bft)
21.12.2017 00:54 6,3 C 99 % 1029,0 hPa 0,0 l/m 8,5 km/h (2 Bft) S-SW 212 0 min 0 W/m 6,2 C 4,6 C 14,5 km/h (3 Bft)
21.12.2017 00:57 6,3 C 99 % 1029,0 hPa 0,0 l/m 9,1 km/h (2 Bft) SW 215 0 min 0 W/m 6,2 C 4,1 C 16,1 km/h (3 Bft)
21.12.2017 01:00 6,3 C 99 % 1029,0 hPa 0,0 l/m 8,5 km/h (2 Bft) SW 219 0 min 0 W/m 6,2 C 4,6 C 16,1 km/h (3 Bft)
21.12.2017 01:03 6,3 C 99 % 1028,9 hPa 0,0 l/m 10,5 km/h (2 Bft) SW 215 0 min 0 W/m 6,2 C 3,2 C 19,3 km/h (3 Bft)
21.12.2017 01:06 6,3 C 99 % 1028,9 hPa 0,0 l/m 10,9 km/h (2 Bft) W-SW 246 0 min 0 W/m 6,2 C 2,9 C 20,9 km/h (4 Bft)
21.12.2017 01:09 6,3 C 99 % 1028,9 hPa 0,0 l/m 10,6 km/h (2 Bft) W-SW 244 0 min 0 W/m 6,2 C 3,1 C 17,7 km/h (3 Bft)
21.12.2017 01:12 6,3 C 99 % 1028,9 hPa 0,2 l/m 10,1 km/h (2 Bft) SW 227 0 min 0 W/m 6,2 C 3,4 C 16,1 km/h (3 Bft)
21.12.2017 01:15 6,3 C 99 % 1028,9 hPa 0,0 l/m 8,4 km/h (2 Bft) W-SW 250 0 min 0 W/m 6,2 C 4,7 C 14,5 km/h (3 Bft)
21.12.2017 01:18 6,4 C 99 % 1028,8 hPa 0,0 l/m 8,2 km/h (2 Bft) W-SW 245 0 min 0 W/m 6,3 C 4,9 C 14,5 km/h (3 Bft)
21.12.2017 01:21 6,4 C 99 % 1028,8 hPa 0,0 l/m 9,2 km/h (2 Bft) SW 217 0 min 0 W/m 6,3 C 4,2 C 17,7 km/h (3 Bft)
21.12.2017 01:24 6,4 C 99 % 1028,8 hPa 0,0 l/m 8,0 km/h (2 Bft) W-SW 253 0 min 0 W/m 6,3 C 5,1 C 14,5 km/h (3 Bft)
21.12.2017 01:27 6,4 C 99 % 1028,8 hPa 0,0 l/m 9,0 km/h (2 Bft) W-SW 247 0 min 0 W/m 6,3 C 4,3 C 16,1 km/h (3 Bft)
21.12.2017 01:30 6,5 C 99 % 1028,9 hPa 0,0 l/m 7,1 km/h (2 Bft) W-NW 282 0 min 0 W/m 6,4 C 5,9 C 12,9 km/h (3 Bft)
21.12.2017 01:33 6,5 C 99 % 1028,9 hPa 0,0 l/m 7,4 km/h (2 Bft) W 276 0 min 0 W/m 6,4 C 5,7 C 16,1 km/h (3 Bft)
21.12.2017 01:36 6,4 C 99 % 1028,9 hPa 0,2 l/m 5,7 km/h (2 Bft) S-SW 202 0 min 0 W/m 6,3 C 6,4 C 11,3 km/h (2 Bft)
21.12.2017 01:39 6,4 C 99 % 1028,9 hPa 0,0 l/m 8,8 km/h (2 Bft) W-SW 240 0 min 0 W/m 6,3 C 4,5 C 16,1 km/h (3 Bft)
21.12.2017 01:42 6,4 C 99 % 1028,8 hPa 0,0 l/m 8,6 km/h (2 Bft) W-SW 249 0 min 0 W/m 6,3 C 4,6 C 14,5 km/h (3 Bft)
21.12.2017 01:45 6,4 C 99 % 1028,9 hPa 0,0 l/m 9,0 km/h (2 Bft) SW 221 0 min 0 W/m 6,3 C 4,3 C 14,5 km/h (3 Bft)
21.12.2017 01:48 6,4 C 99 % 1028,8 hPa 0,0 l/m 8,0 km/h (2 Bft) W-SW 242 0 min 0 W/m 6,3 C 5,1 C 14,5 km/h (3 Bft)
21.12.2017 01:51 6,4 C 99 % 1028,8 hPa 0,0 l/m 8,8 km/h (2 Bft) W-SW 240 0 min 0 W/m 6,3 C 4,5 C 14,5 km/h (3 Bft)
21.12.2017 01:54 6,4 C 99 % 1028,8 hPa 0,0 l/m 7,7 km/h (2 Bft) W-SW 240 0 min 0 W/m 6,3 C 5,3 C 14,5 km/h (3 Bft)
21.12.2017 01:57 6,4 C 99 % 1028,7 hPa 0,0 l/m 10,7 km/h (2 Bft) W-SW 238 0 min 0 W/m 6,3 C 3,2 C 17,7 km/h (3 Bft)
21.12.2017 02:00 6,4 C 99 % 1028,7 hPa 0,0 l/m 8,5 km/h (2 Bft) SW 229 0 min 0 W/m 6,3 C 4,7 C 14,5 km/h (3 Bft)
21.12.2017 02:03 6,4 C 99 % 1028,7 hPa 0,0 l/m 9,5 km/h (2 Bft) W-SW 238 0 min 0 W/m 6,3 C 4,0 C 16,1 km/h (3 Bft)
21.12.2017 02:06 6,4 C 99 % 1028,7 hPa 0,0 l/m 10,4 km/h (2 Bft) SW 229 0 min 0 W/m 6,3 C 3,4 C 16,1 km/h (3 Bft)
21.12.2017 02:09 6,5 C 99 % 1028,6 hPa 0,0 l/m 7,6 km/h (2 Bft) W 267 0 min 0 W/m 6,4 C 5,5 C 17,7 km/h (3 Bft)
21.12.2017 02:12 6,5 C 99 % 1028,6 hPa 0,0 l/m 9,1 km/h (2 Bft) W-SW 239 0 min 0 W/m 6,4 C 4,4 C 14,5 km/h (3 Bft)
21.12.2017 02:15 6,5 C 99 % 1028,6 hPa 0,0 l/m 9,9 km/h (2 Bft) SW 236 0 min 0 W/m 6,4 C 3,8 C 16,1 km/h (3 Bft)
21.12.2017 02:18 6,6 C 99 % 1028,6 hPa 0,0 l/m 7,2 km/h (2 Bft) W-SW 254 0 min 0 W/m 6,5 C 5,9 C 12,9 km/h (3 Bft)
21.12.2017 02:21 6,6 C 99 % 1028,6 hPa 0,0 l/m 10,8 km/h (2 Bft) W-SW 238 0 min 0 W/m 6,5 C 3,3 C 20,9 km/h (4 Bft)
21.12.2017 02:24 6,6 C 99 % 1028,7 hPa 0,0 l/m 9,7 km/h (2 Bft) SW 223 0 min 0 W/m 6,5 C 4,0 C 19,3 km/h (3 Bft)
21.12.2017 02:27 6,6 C 99 % 1028,7 hPa 0,0 l/m 11,8 km/h (2 Bft) S-SW 207 0 min 0 W/m 6,5 C 2,7 C 17,7 km/h (3 Bft)
21.12.2017 02:30 6,6 C 99 % 1028,6 hPa 0,2 l/m 9,5 km/h (2 Bft) W 264 0 min 0 W/m 6,5 C 4,2 C 17,7 km/h (3 Bft)
21.12.2017 02:33 6,6 C 99 % 1028,7 hPa 0,0 l/m 8,9 km/h (2 Bft) W-SW 257 0 min 0 W/m 6,5 C 4,6 C 16,1 km/h (3 Bft)
21.12.2017 02:36 6,6 C 99 % 1028,6 hPa 0,0 l/m 9,4 km/h (2 Bft) S-SW 207 0 min 0 W/m 6,5 C 4,2 C 16,1 km/h (3 Bft)
21.12.2017 02:39 6,6 C 99 % 1028,6 hPa 0,0 l/m 8,4 km/h (2 Bft) SW 219 0 min 0 W/m 6,5 C 5,0 C 17,7 km/h (3 Bft)
21.12.2017 02:42 6,6 C 99 % 1028,7 hPa 0,0 l/m 8,7 km/h (2 Bft) W-SW 238 0 min 0 W/m 6,5 C 4,8 C 16,1 km/h (3 Bft)
21.12.2017 02:45 6,6 C 99 % 1028,7 hPa 0,0 l/m 8,6 km/h (2 Bft) W 259 0 min 0 W/m 6,5 C 4,8 C 14,5 km/h (3 Bft)
21.12.2017 02:48 6,6 C 99 % 1028,8 hPa 0,0 l/m 8,9 km/h (2 Bft) SW 227 0 min 0 W/m 6,5 C 4,6 C 12,9 km/h (3 Bft)
21.12.2017 02:51 6,6 C 99 % 1028,7 hPa 0,0 l/m 8,1 km/h (2 Bft) W 266 0 min 0 W/m 6,5 C 5,2 C 17,7 km/h (3 Bft)
21.12.2017 02:54 6,6 C 99 % 1028,8 hPa 0,0 l/m 7,1 km/h (2 Bft) W-SW 245 0 min 0 W/m 6,5 C 6,0 C 14,5 km/h (3 Bft)
21.12.2017 02:57 6,6 C 99 % 1028,8 hPa 0,0 l/m 10,8 km/h (2 Bft) W 275 0 min 0 W/m 6,5 C 3,3 C 17,7 km/h (3 Bft)
21.12.2017 03:00 6,6 C 99 % 1028,8 hPa 0,0 l/m 10,0 km/h (2 Bft) W-SW 252 0 min 0 W/m 6,5 C 3,8 C 19,3 km/h (3 Bft)
21.12.2017 03:03 6,7 C 99 % 1028,9 hPa 0,0 l/m 14,2 km/h (3 Bft) W-SW 258 0 min 0 W/m 6,6 C 1,5 C 22,5 km/h (4 Bft)
21.12.2017 03:06 6,7 C 99 % 1028,8 hPa 0,0 l/m 13,4 km/h (3 Bft) W 264 0 min 0 W/m 6,6 C 1,9 C 20,9 km/h (4 Bft)
21.12.2017 03:09 6,7 C 99 % 1028,8 hPa 0,0 l/m 13,3 km/h (3 Bft) W-SW 252 0 min 0 W/m 6,6 C 2,0 C 22,5 km/h (4 Bft)
21.12.2017 03:12 6,7 C 99 % 1028,9 hPa 0,0 l/m 10,9 km/h (2 Bft) SW 233 0 min 0 W/m 6,6 C 3,4 C 24,1 km/h (4 Bft)
21.12.2017 03:15 6,7 C 99 % 1028,9 hPa 0,0 l/m 9,8 km/h (2 Bft) W-SW 250 0 min 0 W/m 6,6 C 4,1 C 19,3 km/h (3 Bft)
21.12.2017 03:18 6,7 C 99 % 1028,8 hPa 0,0 l/m 12,5 km/h (2 Bft) W-SW 253 0 min 0 W/m 6,6 C 2,4 C 19,3 km/h (3 Bft)
21.12.2017 03:21 6,7 C 99 % 1028,7 hPa 0,0 l/m 10,7 km/h (2 Bft) W 261 0 min 0 W/m 6,6 C 3,5 C 17,7 km/h (3 Bft)
21.12.2017 03:24 6,7 C 99 % 1028,8 hPa 0,0 l/m 11,4 km/h (2 Bft) W 263 0 min 0 W/m 6,6 C 3,1 C 17,7 km/h (3 Bft)
21.12.2017 03:27 6,7 C 99 % 1028,8 hPa 0,0 l/m 12,8 km/h (3 Bft) SW 227 0 min 0 W/m 6,6 C 2,3 C 20,9 km/h (4 Bft)
21.12.2017 03:30 6,7 C 99 % 1028,8 hPa 0,0 l/m 10,1 km/h (2 Bft) W-SW 255 0 min 0 W/m 6,6 C 3,9 C 17,7 km/h (3 Bft)
21.12.2017 03:33 6,7 C 99 % 1028,8 hPa 0,0 l/m 10,0 km/h (2 Bft) W-SW 248 0 min 0 W/m 6,6 C 4,0 C 16,1 km/h (3 Bft)
21.12.2017 03:36 6,7 C 99 % 1028,8 hPa 0,0 l/m 10,2 km/h (2 Bft) W-SW 241 0 min 0 W/m 6,6 C 3,8 C 17,7 km/h (3 Bft)
21.12.2017 03:39 6,7 C 99 % 1028,8 hPa 0,0 l/m 10,9 km/h (2 Bft) W 263 0 min 0 W/m 6,6 C 3,4 C 16,1 km/h (3 Bft)
21.12.2017 03:42 6,6 C 99 % 1028,8 hPa 0,0 l/m 10,4 km/h (2 Bft) W 275 0 min 0 W/m 6,5 C 3,6 C 16,1 km/h (3 Bft)
21.12.2017 03:45 6,6 C 99 % 1028,7 hPa 0,0 l/m 8,2 km/h (2 Bft) W 274 0 min 0 W/m 6,5 C 5,1 C 14,5 km/h (3 Bft)
21.12.2017 03:48 6,6 C 99 % 1028,6 hPa 0,0 l/m 10,5 km/h (2 Bft) W 263 0 min 0 W/m 6,5 C 3,5 C 17,7 km/h (3 Bft)
21.12.2017 03:51 6,6 C 99 % 1028,7 hPa 0,0 l/m 10,0 km/h (2 Bft) W 263 0 min 0 W/m 6,5 C 3,8 C 16,1 km/h (3 Bft)
21.12.2017 03:54 6,6 C 99 % 1028,7 hPa 0,0 l/m 10,4 km/h (2 Bft) SW 223 0 min 0 W/m 6,5 C 3,6 C 16,1 km/h (3 Bft)
21.12.2017 03:57 6,6 C 99 % 1028,7 hPa 0,0 l/m 9,1 km/h (2 Bft) W-SW 252 0 min 0 W/m 6,5 C 4,5 C 16,1 km/h (3 Bft)
21.12.2017 04:00 6,6 C 99 % 1028,7 hPa 0,0 l/m 7,1 km/h (2 Bft) W-SW 257 0 min 0 W/m 6,5 C 6,0 C 12,9 km/h (3 Bft)
21.12.2017 04:03 6,7 C 99 % 1028,7 hPa 0,0 l/m 8,1 km/h (2 Bft) W 273 0 min 0 W/m 6,6 C 5,3 C 12,9 km/h (3 Bft)
21.12.2017 04:06 6,7 C 99 % 1028,6 hPa 0,0 l/m 8,0 km/h (2 Bft) W-SW 254 0 min 0 W/m 6,6 C 5,4 C 12,9 km/h (3 Bft)
21.12.2017 04:09 6,7 C 99 % 1028,6 hPa 0,0 l/m 8,2 km/h (2 Bft) W 273 0 min 0 W/m 6,6 C 5,2 C 16,1 km/h (3 Bft)
21.12.2017 04:12 6,7 C 99 % 1028,6 hPa 0,0 l/m 8,0 km/h (2 Bft) W-SW 250 0 min 0 W/m 6,6 C 5,4 C 14,5 km/h (3 Bft)
21.12.2017 04:15 6,7 C 99 % 1028,6 hPa 0,0 l/m 5,5 km/h (2 Bft) W-SW 250 0 min 0 W/m 6,6 C 6,7 C 12,9 km/h (3 Bft)
21.12.2017 04:18 6,7 C 99 % 1028,6 hPa 0,0 l/m 5,3 km/h (1 Bft) W 263 0 min 0 W/m 6,6 C 6,7 C 9,7 km/h (2 Bft)
21.12.2017 04:21 6,7 C 99 % 1028,7 hPa 0,2 l/m 7,2 km/h (2 Bft) W-SW 249 0 min 0 W/m 6,6 C 6,0 C 14,5 km/h (3 Bft)
21.12.2017 04:24 6,7 C 99 % 1028,8 hPa 0,0 l/m 6,8 km/h (2 Bft) W 271 0 min 0 W/m 6,6 C 6,4 C 14,5 km/h (3 Bft)
21.12.2017 04:27 6,7 C 99 % 1028,7 hPa 0,0 l/m 6,0 km/h (2 Bft) W 261 0 min 0 W/m 6,6 C 6,7 C 11,3 km/h (2 Bft)
21.12.2017 04:30 6,6 C 99 % 1028,7 hPa 0,0 l/m 7,7 km/h (2 Bft) W 277 0 min 0 W/m 6,5 C 5,5 C 12,9 km/h (3 Bft)
21.12.2017 04:33 6,6 C 99 % 1028,7 hPa 0,0 l/m 9,1 km/h (2 Bft) W 273 0 min 0 W/m 6,5 C 4,5 C 14,5 km/h (3 Bft)
21.12.2017 04:36 6,7 C 99 % 1028,8 hPa 0,0 l/m 9,1 km/h (2 Bft) W 261 0 min 0 W/m 6,6 C 4,6 C 14,5 km/h (3 Bft)
21.12.2017 04:39 6,7 C 99 % 1028,6 hPa 0,0 l/m 5,6 km/h (2 Bft) W 279 0 min 0 W/m 6,6 C 6,7 C 14,5 km/h (3 Bft)
21.12.2017 04:42 6,7 C 99 % 1028,7 hPa 0,0 l/m 8,6 km/h (2 Bft) SW 236 0 min 0 W/m 6,6 C 4,9 C 16,1 km/h (3 Bft)
21.12.2017 04:45 6,7 C 99 % 1028,6 hPa 0,0 l/m 4,9 km/h (1 Bft) W-SW 253 0 min 0 W/m 6,6 C 6,7 C 9,7 km/h (2 Bft)
21.12.2017 04:48 6,7 C 99 % 1028,7 hPa 0,0 l/m 4,7 km/h (1 Bft) NW 309 0 min 0 W/m 6,6 C 6,7 C 11,3 km/h (2 Bft)
21.12.2017 04:51 6,8 C 99 % 1028,7 hPa 0,0 l/m 3,1 km/h (1 Bft) N-NW 341 0 min 0 W/m 6,7 C 6,8 C 11,3 km/h (2 Bft)
21.12.2017 04:54 6,8 C 99 % 1028,7 hPa 0,0 l/m 2,5 km/h (1 Bft) W 271 0 min 0 W/m 6,7 C 6,8 C 6,4 km/h (2 Bft)
21.12.2017 04:57 6,8 C 99 % 1028,7 hPa 0,0 l/m 4,5 km/h (1 Bft) N-NW 330 0 min 0 W/m 6,7 C 6,8 C 11,3 km/h (2 Bft)
21.12.2017 05:00 6,8 C 99 % 1028,6 hPa 0,0 l/m 3,7 km/h (1 Bft) NW 313 0 min 0 W/m 6,7 C 6,8 C 6,4 km/h (2 Bft)
21.12.2017 05:03 6,8 C 99 % 1028,6 hPa 0,0 l/m 6,3 km/h (2 Bft) NW 311 0 min 0 W/m 6,7 C 6,8 C 16,1 km/h (3 Bft)
21.12.2017 05:06 6,8 C 99 % 1028,6 hPa 0,0 l/m 5,4 km/h (2 Bft) NW 321 0 min 0 W/m 6,7 C 6,8 C 12,9 km/h (3 Bft)
21.12.2017 05:09 6,8 C 99 % 1028,7 hPa 0,0 l/m 6,2 km/h (2 Bft) NW 319 0 min 0 W/m 6,7 C 6,8 C 12,9 km/h (3 Bft)
21.12.2017 05:12 6,7 C 99 % 1028,7 hPa 0,0 l/m 8,0 km/h (2 Bft) N-NW 333 0 min 0 W/m 6,6 C 5,4 C 14,5 km/h (3 Bft)
21.12.2017 05:15 6,7 C 99 % 1028,8 hPa 0,0 l/m 6,8 km/h (2 Bft) N-NW 338 0 min 0 W/m 6,6 C 6,4 C 12,9 km/h (3 Bft)
21.12.2017 05:18 6,7 C 99 % 1028,8 hPa 0,0 l/m 7,0 km/h (2 Bft) N 355 0 min 0 W/m 6,6 C 6,2 C 12,9 km/h (3 Bft)
21.12.2017 05:21 6,7 C 99 % 1028,8 hPa 0,0 l/m 7,7 km/h (2 Bft) N-NW 344 0 min 0 W/m 6,6 C 5,6 C 14,5 km/h (3 Bft)
21.12.2017 05:24 6,6 C 99 % 1028,8 hPa 0,0 l/m 8,8 km/h (2 Bft) N 355 0 min 0 W/m 6,5 C 4,7 C 17,7 km/h (3 Bft)
21.12.2017 05:27 6,5 C 99 % 1028,8 hPa 0,0 l/m 7,0 km/h (2 Bft) N 360 0 min 0 W/m 6,4 C 6,0 C 12,9 km/h (3 Bft)
21.12.2017 05:30 6,4 C 99 % 1028,8 hPa 0,0 l/m 6,6 km/h (2 Bft) N-NW 332 0 min 0 W/m 6,3 C 6,3 C 14,5 km/h (3 Bft)
21.12.2017 05:33 6,4 C 99 % 1028,9 hPa 0,0 l/m 6,0 km/h (2 Bft) N-NW 337 0 min 0 W/m 6,3 C 6,4 C 9,7 km/h (2 Bft)
21.12.2017 05:36 6,3 C 99 % 1028,9 hPa 0,0 l/m 4,3 km/h (1 Bft) N-NW 340 0 min 0 W/m 6,2 C 6,3 C 11,3 km/h (2 Bft)
21.12.2017 05:39 6,3 C 99 % 1028,9 hPa 0,0 l/m 6,0 km/h (2 Bft) N-NW 331 0 min 0 W/m 6,2 C 6,3 C 11,3 km/h (2 Bft)
21.12.2017 05:42 6,3 C 99 % 1029,0 hPa 0,0 l/m 5,8 km/h (2 Bft) N 355 0 min 0 W/m 6,2 C 6,3 C 12,9 km/h (3 Bft)
21.12.2017 05:45 6,2 C 99 % 1028,9 hPa 0,0 l/m 6,8 km/h (2 Bft) NW 323 0 min 0 W/m 6,1 C 5,9 C 14,5 km/h (3 Bft)
21.12.2017 05:48 6,2 C 98 % 1029,0 hPa 0,0 l/m 5,3 km/h (1 Bft) N-NW 336 0 min 0 W/m 5,9 C 6,2 C 12,9 km/h (3 Bft)
21.12.2017 05:51 6,1 C 98 % 1029,0 hPa 0,0 l/m 5,9 km/h (2 Bft) N-NW 328 0 min 0 W/m 5,8 C 6,1 C 14,5 km/h (3 Bft)
21.12.2017 05:54 6,1 C 98 % 1029,0 hPa 0,0 l/m 7,4 km/h (2 Bft) N-NW 345 0 min 0 W/m 5,8 C 5,3 C 14,5 km/h (3 Bft)
21.12.2017 05:57 6,0 C 99 % 1028,9 hPa 0,0 l/m 6,6 km/h (2 Bft) NW 326 0 min 0 W/m 5,9 C 5,9 C 9,7 km/h (2 Bft)
21.12.2017 06:00 5,9 C 99 % 1028,9 hPa 0,0 l/m 7,4 km/h (2 Bft) NW 312 0 min 0 W/m 5,8 C 5,0 C 14,5 km/h (3 Bft)
21.12.2017 06:03 5,9 C 99 % 1029,0 hPa 0,0 l/m 7,0 km/h (2 Bft) N-NW 346 0 min 0 W/m 5,8 C 5,4 C 12,9 km/h (3 Bft)
21.12.2017 06:06 5,8 C 98 % 1029,0 hPa 0,0 l/m 7,5 km/h (2 Bft) NW 317 0 min 0 W/m 5,5 C 4,9 C 12,9 km/h (3 Bft)
21.12.2017 06:09 5,8 C 98 % 1028,9 hPa 0,0 l/m 5,6 km/h (2 Bft) N-NW 334 0 min 0 W/m 5,5 C 5,8 C 9,7 km/h (2 Bft)
21.12.2017 06:12 5,8 C 98 % 1029,0 hPa 0,0 l/m 5,3 km/h (1 Bft) N-NW 336 0 min 0 W/m 5,5 C 5,8 C 8,0 km/h (2 Bft)
21.12.2017 06:15 5,8 C 99 % 1029,0 hPa 0,0 l/m 4,9 km/h (1 Bft) N-NW 336 0 min 0 W/m 5,7 C 5,8 C 9,7 km/h (2 Bft)
21.12.2017 06:18 5,8 C 99 % 1029,0 hPa 0,0 l/m 3,2 km/h (1 Bft) N-NW 331 0 min 0 W/m 5,7 C 5,8 C 6,4 km/h (2 Bft)
21.12.2017 06:21 5,7 C 99 % 1029,1 hPa 0,0 l/m 2,5 km/h (1 Bft) N-NW 329 0 min 0 W/m 5,6 C 5,7 C 4,8 km/h (1 Bft)
21.12.2017 06:24 5,7 C 99 % 1029,1 hPa 0,0 l/m 2,7 km/h (1 Bft) N-NW 329 0 min 0 W/m 5,6 C 5,7 C 4,8 km/h (1 Bft)
21.12.2017 06:27 5,7 C 99 % 1029,1 hPa 0,0 l/m 3,4 km/h (1 Bft) W-NW 290 0 min 0 W/m 5,6 C 5,7 C 11,3 km/h (2 Bft)
21.12.2017 06:30 5,7 C 99 % 1029,1 hPa 0,0 l/m 3,3 km/h (1 Bft) W-NW 291 0 min 0 W/m 5,6 C 5,7 C 8,0 km/h (2 Bft)
21.12.2017 06:33 5,7 C 99 % 1029,1 hPa 0,0 l/m 3,6 km/h (1 Bft) NW 319 0 min 0 W/m 5,6 C 5,7 C 8,0 km/h (2 Bft)
21.12.2017 06:36 5,8 C 99 % 1029,1 hPa 0,0 l/m 2,4 km/h (1 Bft) NW 319 0 min 0 W/m 5,7 C 5,8 C 4,8 km/h (1 Bft)
21.12.2017 06:39 5,8 C 99 % 1029,1 hPa 0,0 l/m 1,9 km/h (1 Bft) W 279 0 min 0 W/m 5,7 C 5,8 C 6,4 km/h (2 Bft)
21.12.2017 06:42 5,8 C 99 % 1029,1 hPa 0,0 l/m 1,9 km/h (1 Bft) W 280 0 min 0 W/m 5,7 C 5,8 C 6,4 km/h (2 Bft)
21.12.2017 06:45 5,8 C 99 % 1029,1 hPa 0,0 l/m 3,1 km/h (1 Bft) W 280 0 min 0 W/m 5,7 C 5,8 C 9,7 km/h (2 Bft)
21.12.2017 06:48 5,8 C 99 % 1029,1 hPa 0,0 l/m 2,8 km/h (1 Bft) W 281 0 min 0 W/m 5,7 C 5,8 C 6,4 km/h (2 Bft)
21.12.2017 06:51 5,8 C 99 % 1029,1 hPa 0,0 l/m 4,1 km/h (1 Bft) N-NW 329 0 min 0 W/m 5,7 C 5,8 C 8,0 km/h (2 Bft)
21.12.2017 06:54 5,8 C 99 % 1029,1 hPa 0,0 l/m 3,1 km/h (1 Bft) NW 306 0 min 0 W/m 5,7 C 5,8 C 6,4 km/h (2 Bft)
21.12.2017 06:57 5,8 C 99 % 1029,1 hPa 0,0 l/m 3,4 km/h (1 Bft) W 265 0 min 0 W/m 5,7 C 5,8 C 9,7 km/h (2 Bft)
21.12.2017 07:00 5,8 C 99 % 1029,2 hPa 0,0 l/m 3,4 km/h (1 Bft) W-NW 294 0 min 0 W/m 5,7 C 5,8 C 6,4 km/h (2 Bft)
21.12.2017 07:03 5,8 C 99 % 1029,1 hPa 0,0 l/m 2,5 km/h (1 Bft) W-NW 299 0 min 0 W/m 5,7 C 5,8 C 4,8 km/h (1 Bft)
21.12.2017 07:06 5,8 C 99 % 1029,2 hPa 0,0 l/m 3,8 km/h (1 Bft) NW 304 0 min 0 W/m 5,7 C 5,8 C 8,0 km/h (2 Bft)
21.12.2017 07:09 5,8 C 99 % 1029,2 hPa 0,0 l/m 3,1 km/h (1 Bft) W 277 0 min 0 W/m 5,7 C 5,8 C 6,4 km/h (2 Bft)
21.12.2017 07:12 5,8 C 99 % 1029,2 hPa 0,0 l/m 3,6 km/h (1 Bft) W-NW 284 0 min 0 W/m 5,7 C 5,8 C 9,7 km/h (2 Bft)
21.12.2017 07:15 5,9 C 99 % 1029,2 hPa 0,0 l/m 4,6 km/h (1 Bft) W 280 0 min 0 W/m 5,8 C 5,9 C 9,7 km/h (2 Bft)
21.12.2017 07:18 5,9 C 99 % 1029,1 hPa 0,0 l/m 2,2 km/h (1 Bft) W 281 0 min 0 W/m 5,8 C 5,9 C 4,8 km/h (1 Bft)
21.12.2017 07:21 5,9 C 99 % 1029,2 hPa 0,0 l/m 5,3 km/h (1 Bft) W-NW 282 0 min 0 W/m 5,8 C 5,9 C 11,3 km/h (2 Bft)
21.12.2017 07:24 5,9 C 99 % 1029,2 hPa 0,0 l/m 2,2 km/h (1 Bft) W 281 0 min 0 W/m 5,8 C 5,9 C 4,8 km/h (1 Bft)
21.12.2017 07:27 5,9 C 99 % 1029,2 hPa 0,0 l/m 3,5 km/h (1 Bft) W 281 0 min 0 W/m 5,8 C 5,9 C 6,4 km/h (2 Bft)
21.12.2017 07:30 5,9 C 99 % 1029,2 hPa 0,0 l/m 4,1 km/h (1 Bft) W-NW 283 0 min 0 W/m 5,8 C 5,9 C 6,4 km/h (2 Bft)
21.12.2017 07:33 5,9 C 99 % 1029,2 hPa 0,0 l/m 4,0 km/h (1 Bft) W 269 0 min 0 W/m 5,8 C 5,9 C 9,7 km/h (2 Bft)
21.12.2017 07:36 5,9 C 99 % 1029,2 hPa 0,0 l/m 4,1 km/h (1 Bft) W 275 0 min 0 W/m 5,8 C 5,9 C 6,4 km/h (2 Bft)
21.12.2017 07:39 5,9 C 99 % 1029,2 hPa 0,0 l/m 2,6 km/h (1 Bft) W 275 0 min 0 W/m 5,8 C 5,9 C 4,8 km/h (1 Bft)
21.12.2017 07:42 5,9 C 99 % 1029,2 hPa 0,0 l/m 2,1 km/h (1 Bft) W 275 0 min 0 W/m 5,8 C 5,9 C 4,8 km/h (1 Bft)
21.12.2017 07:45 5,9 C 99 % 1029,3 hPa 0,0 l/m 4,3 km/h (1 Bft) W 275 0 min 0 W/m 5,8 C 5,9 C 9,7 km/h (2 Bft)
21.12.2017 07:48 5,9 C 99 % 1029,3 hPa 0,0 l/m 4,0 km/h (1 Bft) W 277 0 min 0 W/m 5,8 C 5,9 C 9,7 km/h (2 Bft)
21.12.2017 07:51 5,9 C 99 % 1029,3 hPa 0,0 l/m 4,2 km/h (1 Bft) W 277 0 min 0 W/m 5,8 C 5,9 C 9,7 km/h (2 Bft)
21.12.2017 07:54 5,9 C 99 % 1029,3 hPa 0,0 l/m 3,9 km/h (1 Bft) W 277 0 min 0 W/m 5,8 C 5,9 C 6,4 km/h (2 Bft)
21.12.2017 07:57 5,9 C 99 % 1029,4 hPa 0,0 l/m 2,1 km/h (1 Bft) W 277 0 min 0 W/m 5,8 C 5,9 C 6,4 km/h (2 Bft)
21.12.2017 08:00 5,9 C 99 % 1029,4 hPa 0,0 l/m 4,1 km/h (1 Bft) W 281 0 min 0 W/m 5,8 C 5,9 C 8,0 km/h (2 Bft)
21.12.2017 08:03 5,9 C 99 % 1029,5 hPa 0,0 l/m 5,0 km/h (1 Bft) W-SW 257 0 min 0 W/m 5,8 C 5,9 C 11,3 km/h (2 Bft)
21.12.2017 08:06 5,9 C 99 % 1029,5 hPa 0,0 l/m 3,9 km/h (1 Bft) W 281 0 min 0 W/m 5,8 C 5,9 C 11,3 km/h (2 Bft)
21.12.2017 08:09 5,9 C 99 % 1029,5 hPa 0,0 l/m 4,3 km/h (1 Bft) W-NW 292 0 min 0 W/m 5,8 C 5,9 C 9,7 km/h (2 Bft)
21.12.2017 08:12 5,9 C 99 % 1029,5 hPa 0,0 l/m 5,2 km/h (1 Bft) W-NW 286 0 min 0 W/m 5,8 C 5,9 C 9,7 km/h (2 Bft)
21.12.2017 08:15 5,9 C 99 % 1029,5 hPa 0,0 l/m 4,4 km/h (1 Bft) W-NW 287 0 min 0 W/m 5,8 C 5,9 C 6,4 km/h (2 Bft)
21.12.2017 08:18 5,9 C 99 % 1029,6 hPa 0,0 l/m 4,4 km/h (1 Bft) W 281 0 min 0 W/m 5,8 C 5,9 C 9,7 km/h (2 Bft)
21.12.2017 08:21 5,9 C 99 % 1029,5 hPa 0,0 l/m 4,3 km/h (1 Bft) W 281 0 min 0 W/m 5,8 C 5,9 C 6,4 km/h (2 Bft)
21.12.2017 08:24 5,9 C 99 % 1029,5 hPa 0,0 l/m 3,1 km/h (1 Bft) W 281 0 min 0 W/m 5,8 C 5,9 C 9,7 km/h (2 Bft)
21.12.2017 08:27 5,9 C 99 % 1029,6 hPa 0,0 l/m 3,4 km/h (1 Bft) NW 308 0 min 0 W/m 5,8 C 5,9 C 8,0 km/h (2 Bft)
21.12.2017 08:30 5,9 C 99 % 1029,6 hPa 0,0 l/m 3,1 km/h (1 Bft) NW 307 0 min 0 W/m 5,8 C 5,9 C 6,4 km/h (2 Bft)
21.12.2017 08:33 5,8 C 99 % 1029,7 hPa 0,0 l/m 3,4 km/h (1 Bft) W-NW 290 0 min 0 W/m 5,7 C 5,8 C 8,0 km/h (2 Bft)
21.12.2017 08:36 5,8 C 99 % 1029,7 hPa 0,0 l/m 3,8 km/h (1 Bft) NW 313 0 min 0 W/m 5,7 C 5,8 C 6,4 km/h (2 Bft)
21.12.2017 08:39 5,8 C 99 % 1029,7 hPa 0,0 l/m 3,9 km/h (1 Bft) NW 311 0 min 0 W/m 5,7 C 5,8 C 8,0 km/h (2 Bft)
21.12.2017 08:42 5,8 C 99 % 1029,8 hPa 0,0 l/m 3,8 km/h (1 Bft) N-NW 333 0 min 0 W/m 5,7 C 5,8 C 9,7 km/h (2 Bft)
21.12.2017 08:45 5,8 C 99 % 1029,8 hPa 0,0 l/m 5,3 km/h (1 Bft) NW 319 0 min 0 W/m 5,7 C 5,8 C 9,7 km/h (2 Bft)
21.12.2017 08:48 5,8 C 99 % 1029,8 hPa 0,0 l/m 7,8 km/h (2 Bft) N-NW 332 0 min 0 W/m 5,7 C 4,6 C 16,1 km/h (3 Bft)
21.12.2017 08:51 5,8 C 99 % 1029,8 hPa 0,0 l/m 6,3 km/h (2 Bft) NW 323 0 min 0 W/m 5,7 C 5,8 C 14,5 km/h (3 Bft)
21.12.2017 08:54 5,8 C 99 % 1029,8 hPa 0,0 l/m 7,8 km/h (2 Bft) N-NW 330 0 min 0 W/m 5,7 C 4,6 C 12,9 km/h (3 Bft)
21.12.2017 08:57 5,8 C 99 % 1029,8 hPa 0,0 l/m 6,9 km/h (2 Bft) N-NW 327 0 min 0 W/m 5,7 C 5,4 C 12,9 km/h (3 Bft)
21.12.2017 09:00 5,8 C 99 % 1029,7 hPa 0,0 l/m 7,3 km/h (2 Bft) N-NW 331 0 min 0 W/m 5,7 C 5,0 C 14,5 km/h (3 Bft)
21.12.2017 09:03 5,8 C 99 % 1029,7 hPa 0,0 l/m 4,6 km/h (1 Bft) NW 320 0 min 5 W/m 5,7 C 5,8 C 8,0 km/h (2 Bft)
21.12.2017 09:06 5,8 C 99 % 1029,7 hPa 0,0 l/m 5,8 km/h (2 Bft) NW 323 0 min 5 W/m 5,7 C 5,8 C 9,7 km/h (2 Bft)
21.12.2017 09:09 5,8 C 99 % 1029,7 hPa 0,0 l/m 6,9 km/h (2 Bft) N-NW 331 0 min 5 W/m 5,7 C 5,4 C 12,9 km/h (3 Bft)
21.12.2017 09:12 5,8 C 99 % 1029,7 hPa 0,0 l/m 7,6 km/h (2 Bft) NW 306 0 min 5 W/m 5,7 C 4,8 C 12,9 km/h (3 Bft)
21.12.2017 09:15 5,8 C 99 % 1029,6 hPa 0,0 l/m 3,9 km/h (1 Bft) N 355 0 min 5 W/m 5,7 C 5,8 C 8,0 km/h (2 Bft)
21.12.2017 09:18 5,8 C 99 % 1029,7 hPa 0,0 l/m 4,9 km/h (1 Bft) NW 308 0 min 7 W/m 5,7 C 5,8 C 8,0 km/h (2 Bft)
21.12.2017 09:21 5,8 C 99 % 1029,7 hPa 0,0 l/m 4,8 km/h (1 Bft) N-NW 333 0 min 7 W/m 5,7 C 5,8 C 9,7 km/h (2 Bft)
21.12.2017 09:24 5,8 C 99 % 1029,7 hPa 0,0 l/m 7,2 km/h (2 Bft) N-NW 329 0 min 7 W/m 5,7 C 5,1 C 11,3 km/h (2 Bft)
21.12.2017 09:27 5,8 C 99 % 1029,7 hPa 0,0 l/m 6,5 km/h (2 Bft) N-NW 347 0 min 7 W/m 5,7 C 5,7 C 12,9 km/h (3 Bft)
21.12.2017 09:30 5,8 C 99 % 1029,7 hPa 0,0 l/m 5,0 km/h (1 Bft) NW 308 0 min 9 W/m 5,7 C 5,8 C 8,0 km/h (2 Bft)
21.12.2017 09:33 5,8 C 99 % 1029,8 hPa 0,0 l/m 6,5 km/h (2 Bft) NW 318 0 min 11 W/m 5,7 C 5,7 C 12,9 km/h (3 Bft)
21.12.2017 09:36 5,8 C 99 % 1029,9 hPa 0,0 l/m 5,8 km/h (2 Bft) NW 325 0 min 14 W/m 5,7 C 5,8 C 9,7 km/h (2 Bft)
21.12.2017 09:39 5,8 C 99 % 1029,9 hPa 0,0 l/m 6,2 km/h (2 Bft) NW 311 0 min 18 W/m 5,7 C 5,8 C 12,9 km/h (3 Bft)
21.12.2017 09:42 5,8 C 99 % 1029,9 hPa 0,0 l/m 8,3 km/h (2 Bft) N-NW 328 0 min 21 W/m 5,7 C 4,2 C 14,5 km/h (3 Bft)
21.12.2017 09:45 5,8 C 99 % 1030,0 hPa 0,0 l/m 7,9 km/h (2 Bft) NW 320 0 min 23 W/m 5,7 C 4,5 C 16,1 km/h (3 Bft)
21.12.2017 09:48 5,8 C 99 % 1030,0 hPa 0,0 l/m 6,5 km/h (2 Bft) N-NW 330 0 min 21 W/m 5,7 C 5,7 C 14,5 km/h (3 Bft)
21.12.2017 09:51 5,9 C 99 % 1030,0 hPa 0,0 l/m 5,4 km/h (2 Bft) NW 315 0 min 23 W/m 5,8 C 5,9 C 12,9 km/h (3 Bft)
21.12.2017 09:54 5,9 C 99 % 1030,0 hPa 0,0 l/m 4,2 km/h (1 Bft) NW 323 0 min 28 W/m 5,8 C 5,9 C 8,0 km/h (2 Bft)
21.12.2017 09:57 5,9 C 99 % 1030,1 hPa 0,0 l/m 4,2 km/h (1 Bft) W-NW 298 0 min 28 W/m 5,8 C 5,9 C 9,7 km/h (2 Bft)
21.12.2017 10:00 5,9 C 99 % 1030,0 hPa 0,0 l/m 4,4 km/h (1 Bft) N-NW 331 0 min 33 W/m 5,8 C 5,9 C 9,7 km/h (2 Bft)
21.12.2017 10:03 5,9 C 99 % 1030,1 hPa 0,0 l/m 4,9 km/h (1 Bft) NW 305 0 min 35 W/m 5,8 C 5,9 C 9,7 km/h (2 Bft)
21.12.2017 10:06 5,9 C 99 % 1030,1 hPa 0,0 l/m 3,5 km/h (1 Bft) W-NW 288 0 min 30 W/m 5,8 C 5,9 C 8,0 km/h (2 Bft)
21.12.2017 10:09 5,9 C 99 % 1030,1 hPa 0,0 l/m 3,5 km/h (1 Bft) W-NW 296 0 min 42 W/m 5,8 C 5,9 C 8,0 km/h (2 Bft)
21.12.2017 10:12 6,0 C 99 % 1030,2 hPa 0,0 l/m 3,7 km/h (1 Bft) W-NW 290 0 min 47 W/m 5,9 C 6,0 C 8,0 km/h (2 Bft)
21.12.2017 10:15 6,1 C 99 % 1030,2 hPa 0,0 l/m 3,1 km/h (1 Bft) W 269 0 min 32 W/m 6,0 C 6,1 C 11,3 km/h (2 Bft)
21.12.2017 10:18 6,1 C 99 % 1030,2 hPa 0,0 l/m 4,3 km/h (1 Bft) W 263 0 min 32 W/m 6,0 C 6,1 C 11,3 km/h (2 Bft)
21.12.2017 10:21 6,1 C 99 % 1030,2 hPa 0,0 l/m 4,8 km/h (1 Bft) W-NW 290 0 min 33 W/m 6,0 C 6,1 C 12,9 km/h (3 Bft)
21.12.2017 10:24 6,1 C 99 % 1030,2 hPa 0,0 l/m 5,9 km/h (2 Bft) W 278 0 min 37 W/m 6,0 C 6,1 C 11,3 km/h (2 Bft)
21.12.2017 10:27 6,2 C 99 % 1030,2 hPa 0,0 l/m 5,8 km/h (2 Bft) W-NW 295 0 min 53 W/m 6,1 C 6,2 C 11,3 km/h (2 Bft)
21.12.2017 10:30 6,2 C 99 % 1030,2 hPa 0,0 l/m 6,1 km/h (2 Bft) W-SW 257 0 min 47 W/m 6,1 C 6,2 C 11,3 km/h (2 Bft)
21.12.2017 10:33 6,2 C 99 % 1030,3 hPa 0,0 l/m 5,3 km/h (1 Bft) SW 225 0 min 40 W/m 6,1 C 6,2 C 11,3 km/h (2 Bft)
21.12.2017 10:36 6,2 C 99 % 1030,3 hPa 0,0 l/m 4,6 km/h (1 Bft) W 275 0 min 47 W/m 6,1 C 6,2 C 9,7 km/h (2 Bft)
21.12.2017 10:39 6,3 C 99 % 1030,4 hPa 0,0 l/m 3,7 km/h (1 Bft) W 273 0 min 40 W/m 6,2 C 6,3 C 11,3 km/h (2 Bft)
21.12.2017 10:42 6,3 C 99 % 1030,4 hPa 0,0 l/m 6,3 km/h (2 Bft) W 275 0 min 37 W/m 6,2 C 6,3 C 11,3 km/h (2 Bft)
21.12.2017 10:45 6,3 C 99 % 1030,4 hPa 0,0 l/m 5,1 km/h (1 Bft) W 277 0 min 44 W/m 6,2 C 6,3 C 11,3 km/h (2 Bft)
21.12.2017 10:48 6,3 C 99 % 1030,4 hPa 0,0 l/m 5,7 km/h (2 Bft) W-NW 282 0 min 44 W/m 6,2 C 6,3 C 12,9 km/h (3 Bft)
21.12.2017 10:51 6,3 C 99 % 1030,3 hPa 0,0 l/m 6,4 km/h (2 Bft) W-SW 248 0 min 44 W/m 6,2 C 6,3 C 12,9 km/h (3 Bft)
21.12.2017 10:54 6,3 C 99 % 1030,4 hPa 0,0 l/m 4,8 km/h (1 Bft) W 274 0 min 49 W/m 6,2 C 6,3 C 9,7 km/h (2 Bft)
21.12.2017 10:57 6,3 C 99 % 1030,3 hPa 0,0 l/m 5,3 km/h (1 Bft) W 276 0 min 60 W/m 6,2 C 6,3 C 12,9 km/h (3 Bft)
21.12.2017 11:00 6,4 C 99 % 1030,4 hPa 0,0 l/m 6,7 km/h (2 Bft) W 271 0 min 58 W/m 6,3 C 6,2 C 12,9 km/h (3 Bft)
21.12.2017 11:03 6,4 C 99 % 1030,4 hPa 0,0 l/m 6,5 km/h (2 Bft) W 269 0 min 63 W/m 6,3 C 6,3 C 11,3 km/h (2 Bft)
21.12.2017 11:06 6,4 C 99 % 1030,4 hPa 0,0 l/m 5,6 km/h (2 Bft) W-NW 282 0 min 47 W/m 6,3 C 6,4 C 12,9 km/h (3 Bft)
21.12.2017 11:09 6,4 C 99 % 1030,4 hPa 0,0 l/m 6,2 km/h (2 Bft) W-NW 296 0 min 44 W/m 6,3 C 6,4 C 16,1 km/h (3 Bft)
21.12.2017 11:12 6,4 C 99 % 1030,4 hPa 0,0 l/m 5,4 km/h (2 Bft) W 267 0 min 33 W/m 6,3 C 6,4 C 17,7 km/h (3 Bft)
21.12.2017 11:15 6,5 C 99 % 1030,4 hPa 0,0 l/m 7,3 km/h (2 Bft) W 270 0 min 28 W/m 6,4 C 5,7 C 12,9 km/h (3 Bft)
21.12.2017 11:18 6,4 C 99 % 1030,4 hPa 0,0 l/m 8,1 km/h (2 Bft) W-NW 290 0 min 30 W/m 6,3 C 5,0 C 12,9 km/h (3 Bft)
21.12.2017 11:21 6,4 C 99 % 1030,5 hPa 0,0 l/m 5,8 km/h (2 Bft) W 266 0 min 35 W/m 6,3 C 6,4 C 16,1 km/h (3 Bft)
21.12.2017 11:24 6,4 C 99 % 1030,5 hPa 0,0 l/m 6,8 km/h (2 Bft) NW 317 0 min 40 W/m 6,3 C 6,1 C 12,9 km/h (3 Bft)
21.12.2017 11:27 6,4 C 99 % 1030,4 hPa 0,0 l/m 4,2 km/h (1 Bft) W-NW 284 0 min 47 W/m 6,3 C 6,4 C 9,7 km/h (2 Bft)
21.12.2017 11:30 6,4 C 99 % 1030,5 hPa 0,0 l/m 4,7 km/h (1 Bft) W 262 0 min 47 W/m 6,3 C 6,4 C 8,0 km/h (2 Bft)
21.12.2017 11:33 6,4 C 99 % 1030,4 hPa 0,0 l/m 5,2 km/h (1 Bft) W 271 0 min 49 W/m 6,3 C 6,4 C 11,3 km/h (2 Bft)
21.12.2017 11:36 6,4 C 99 % 1030,4 hPa 0,0 l/m 6,7 km/h (2 Bft) W-NW 283 0 min 58 W/m 6,3 C 6,2 C 11,3 km/h (2 Bft)
21.12.2017 11:39 6,4 C 99 % 1030,3 hPa 0,0 l/m 6,7 km/h (2 Bft) W-SW 254 0 min 62 W/m 6,3 C 6,2 C 12,9 km/h (3 Bft)
21.12.2017 11:42 6,4 C 99 % 1030,3 hPa 0,0 l/m 7,8 km/h (2 Bft) SW 236 0 min 58 W/m 6,3 C 5,2 C 14,5 km/h (3 Bft)
21.12.2017 11:45 6,4 C 99 % 1030,3 hPa 0,0 l/m 7,3 km/h (2 Bft) W 263 0 min 49 W/m 6,3 C 5,6 C 12,9 km/h (3 Bft)
21.12.2017 11:48 6,4 C 99 % 1030,3 hPa 0,0 l/m 8,3 km/h (2 Bft) W-NW 295 0 min 54 W/m 6,3 C 4,8 C 14,5 km/h (3 Bft)
21.12.2017 11:51 6,4 C 99 % 1030,3 hPa 0,0 l/m 6,9 km/h (2 Bft) W 279 0 min 56 W/m 6,3 C 6,0 C 12,9 km/h (3 Bft)
21.12.2017 11:54 6,4 C 99 % 1030,2 hPa 0,0 l/m 7,0 km/h (2 Bft) W 277 0 min 65 W/m 6,3 C 5,9 C 12,9 km/h (3 Bft)
21.12.2017 11:57 6,5 C 99 % 1030,2 hPa 0,0 l/m 4,0 km/h (1 Bft) W 261 0 min 70 W/m 6,4 C 6,5 C 6,4 km/h (2 Bft)
21.12.2017 12:00 6,4 C 99 % 1030,1 hPa 0,0 l/m 5,9 km/h (2 Bft) SW 225 0 min 69 W/m 6,3 C 6,4 C 9,7 km/h (2 Bft)
21.12.2017 12:03 6,4 C 99 % 1030,1 hPa 0,0 l/m 3,8 km/h (1 Bft) W 272 0 min 63 W/m 6,3 C 6,4 C 6,4 km/h (2 Bft)
21.12.2017 12:06 6,5 C 99 % 1030,1 hPa 0,0 l/m 5,8 km/h (2 Bft) W 273 0 min 58 W/m 6,4 C 6,5 C 11,3 km/h (2 Bft)
21.12.2017 12:09 6,5 C 99 % 1030,0 hPa 0,0 l/m 5,6 km/h (2 Bft) W-NW 284 0 min 58 W/m 6,4 C 6,5 C 11,3 km/h (2 Bft)
21.12.2017 12:12 6,6 C 99 % 1030,0 hPa 0,0 l/m 5,1 km/h (1 Bft) W-SW 258 0 min 60 W/m 6,5 C 6,6 C 11,3 km/h (2 Bft)
21.12.2017 12:15 6,6 C 99 % 1030,0 hPa 0,0 l/m 6,9 km/h (2 Bft) W 271 0 min 56 W/m 6,5 C 6,2 C 12,9 km/h (3 Bft)
21.12.2017 12:18 6,5 C 99 % 1030,0 hPa 0,0 l/m 7,1 km/h (2 Bft) W-NW 283 0 min 58 W/m 6,4 C 5,9 C 14,5 km/h (3 Bft)
21.12.2017 12:21 6,5 C 99 % 1030,0 hPa 0,0 l/m 7,1 km/h (2 Bft) W-NW 287 0 min 65 W/m 6,4 C 5,9 C 11,3 km/h (2 Bft)
21.12.2017 12:24 6,5 C 99 % 1029,9 hPa 0,0 l/m 5,2 km/h (1 Bft) W 277 0 min 63 W/m 6,4 C 6,5 C 11,3 km/h (2 Bft)
21.12.2017 12:27 6,6 C 99 % 1030,0 hPa 0,0 l/m 3,5 km/h (1 Bft) W-NW 300 0 min 54 W/m 6,5 C 6,6 C 9,7 km/h (2 Bft)
21.12.2017 12:30 6,6 C 99 % 1030,0 hPa 0,0 l/m 4,6 km/h (1 Bft) W-NW 284 0 min 53 W/m 6,5 C 6,6 C 14,5 km/h (3 Bft)
21.12.2017 12:33 6,6 C 99 % 1030,0 hPa 0,0 l/m 6,7 km/h (2 Bft) W 271 0 min 53 W/m 6,5 C 6,4 C 12,9 km/h (3 Bft)
21.12.2017 12:36 6,6 C 99 % 1030,0 hPa 0,0 l/m 7,1 km/h (2 Bft) W-NW 287 0 min 49 W/m 6,5 C 6,0 C 12,9 km/h (3 Bft)
21.12.2017 12:39 6,5 C 99 % 1030,0 hPa 0,0 l/m 7,6 km/h (2 Bft) W 269 0 min 49 W/m 6,4 C 5,5 C 12,9 km/h (3 Bft)
21.12.2017 12:42 6,5 C 99 % 1030,0 hPa 0,0 l/m 8,0 km/h (2 Bft) W 278 0 min 44 W/m 6,4 C 5,2 C 12,9 km/h (3 Bft)
21.12.2017 12:45 6,5 C 99 % 1030,0 hPa 0,0 l/m 5,9 km/h (2 Bft) W 261 0 min 39 W/m 6,4 C 6,5 C 11,3 km/h (2 Bft)
21.12.2017 12:48 6,5 C 99 % 1030,1 hPa 0,0 l/m 5,4 km/h (2 Bft) W 269 0 min 32 W/m 6,4 C 6,5 C 11,3 km/h (2 Bft)
21.12.2017 12:51 6,5 C 99 % 1030,2 hPa 0,0 l/m 6,4 km/h (2 Bft) NW 317 0 min 28 W/m 6,4 C 6,5 C 14,5 km/h (3 Bft)
21.12.2017 12:54 6,5 C 99 % 1030,3 hPa 0,0 l/m 8,6 km/h (2 Bft) W 273 0 min 30 W/m 6,4 C 4,7 C 16,1 km/h (3 Bft)
21.12.2017 12:57 6,5 C 99 % 1030,3 hPa 0,0 l/m 5,6 km/h (2 Bft) W-NW 292 0 min 40 W/m 6,4 C 6,5 C 12,9 km/h (3 Bft)
21.12.2017 13:00 6,4 C 99 % 1030,1 hPa 0,0 l/m 4,9 km/h (1 Bft) W-NW 289 0 min 40 W/m 6,3 C 6,4 C 11,3 km/h (2 Bft)
21.12.2017 13:03 6,4 C 99 % 1029,9 hPa 0,0 l/m 5,2 km/h (1 Bft) W 260 0 min 54 W/m 6,3 C 6,4 C 9,7 km/h (2 Bft)
21.12.2017 13:06 6,4 C 99 % 1029,9 hPa 0,0 l/m 4,7 km/h (1 Bft) W 271 0 min 65 W/m 6,3 C 6,4 C 11,3 km/h (2 Bft)
21.12.2017 13:09 6,4 C 99 % 1029,8 hPa 0,0 l/m 5,0 km/h (1 Bft) W 269 0 min 69 W/m 6,3 C 6,4 C 11,3 km/h (2 Bft)
21.12.2017 13:12 6,4 C 99 % 1029,8 hPa 0,0 l/m 5,3 km/h (1 Bft) W 270 0 min 51 W/m 6,3 C 6,4 C 9,7 km/h (2 Bft)
21.12.2017 13:15 6,4 C 99 % 1030,0 hPa 0,0 l/m 7,6 km/h (2 Bft) W-NW 298 0 min 37 W/m 6,3 C 5,4 C 14,5 km/h (3 Bft)
21.12.2017 13:18 6,5 C 99 % 1030,0 hPa 0,0 l/m 4,9 km/h (1 Bft) W-NW 294 0 min 35 W/m 6,4 C 6,5 C 12,9 km/h (3 Bft)
21.12.2017 13:21 6,6 C 99 % 1029,9 hPa 0,0 l/m 4,6 km/h (1 Bft) W 279 0 min 33 W/m 6,5 C 6,6 C 9,7 km/h (2 Bft)
21.12.2017 13:24 6,6 C 99 % 1029,8 hPa 0,0 l/m 7,9 km/h (2 Bft) W 277 0 min 33 W/m 6,5 C 5,4 C 14,5 km/h (3 Bft)
21.12.2017 13:27 6,6 C 99 % 1029,9 hPa 0,0 l/m 6,2 km/h (2 Bft) W-NW 288 0 min 30 W/m 6,5 C 6,6 C 11,3 km/h (2 Bft)
21.12.2017 13:30 6,6 C 99 % 1029,9 hPa 0,0 l/m 7,0 km/h (2 Bft) W-NW 301 0 min 28 W/m 6,5 C 6,1 C 12,9 km/h (3 Bft)
21.12.2017 13:33 6,6 C 99 % 1029,9 hPa 0,0 l/m 7,2 km/h (2 Bft) W-SW 242 0 min 25 W/m 6,5 C 5,9 C 14,5 km/h (3 Bft)
21.12.2017 13:36 6,6 C 99 % 1030,0 hPa 0,0 l/m 8,2 km/h (2 Bft) W-NW 283 0 min 21 W/m 6,5 C 5,1 C 16,1 km/h (3 Bft)
21.12.2017 13:39 6,6 C 99 % 1030,1 hPa 0,0 l/m 5,7 km/h (2 Bft) N-NW 336 0 min 21 W/m 6,5 C 6,6 C 14,5 km/h (3 Bft)
21.12.2017 13:42 6,6 C 99 % 1030,2 hPa 0,0 l/m 7,3 km/h (2 Bft) W-NW 293 0 min 26 W/m 6,5 C 5,8 C 14,5 km/h (3 Bft)
21.12.2017 13:45 6,6 C 99 % 1030,1 hPa 0,0 l/m 8,7 km/h (2 Bft) NW 311 0 min 33 W/m 6,5 C 4,8 C 14,5 km/h (3 Bft)
21.12.2017 13:48 6,6 C 99 % 1030,1 hPa 0,0 l/m 6,6 km/h (2 Bft) W-NW 284 0 min 32 W/m 6,5 C 6,5 C 16,1 km/h (3 Bft)
21.12.2017 13:51 6,6 C 99 % 1029,9 hPa 0,0 l/m 5,8 km/h (2 Bft) NW 319 0 min 30 W/m 6,5 C 6,6 C 17,7 km/h (3 Bft)
21.12.2017 13:54 6,6 C 99 % 1029,9 hPa 0,0 l/m 7,7 km/h (2 Bft) W 266 0 min 28 W/m 6,5 C 5,5 C 14,5 km/h (3 Bft)
21.12.2017 13:57 6,6 C 99 % 1029,9 hPa 0,0 l/m 8,7 km/h (2 Bft) W 275 0 min 23 W/m 6,5 C 4,8 C 16,1 km/h (3 Bft)
21.12.2017 14:00 6,6 C 99 % 1029,9 hPa 0,0 l/m 7,3 km/h (2 Bft) W 277 0 min 21 W/m 6,5 C 5,8 C 14,5 km/h (3 Bft)
21.12.2017 14:03 6,6 C 99 % 1029,8 hPa 0,0 l/m 6,8 km/h (2 Bft) N-NW 327 0 min 23 W/m 6,5 C 6,3 C 12,9 km/h (3 Bft)
21.12.2017 14:06 6,5 C 99 % 1029,9 hPa 0,0 l/m 5,5 km/h (2 Bft) W-NW 288 0 min 19 W/m 6,4 C 6,5 C 12,9 km/h (3 Bft)
21.12.2017 14:09 6,5 C 99 % 1029,8 hPa 0,0 l/m 3,9 km/h (1 Bft) W 271 0 min 18 W/m 6,4 C 6,5 C 8,0 km/h (2 Bft)
21.12.2017 14:12 6,5 C 99 % 1029,8 hPa 0,0 l/m 4,7 km/h (1 Bft) N-NW 328 0 min 18 W/m 6,4 C 6,5 C 11,3 km/h (2 Bft)
21.12.2017 14:15 6,5 C 99 % 1029,8 hPa 0,0 l/m 3,4 km/h (1 Bft) W-NW 283 0 min 25 W/m 6,4 C 6,5 C 8,0 km/h (2 Bft)
21.12.2017 14:18 6,5 C 99 % 1029,6 hPa 0,0 l/m 5,9 km/h (2 Bft) W 273 0 min 23 W/m 6,4 C 6,5 C 11,3 km/h (2 Bft)
21.12.2017 14:21 6,4 C 99 % 1029,6 hPa 0,0 l/m 3,8 km/h (1 Bft) W-SW 250 0 min 21 W/m 6,3 C 6,4 C 9,7 km/h (2 Bft)
21.12.2017 14:24 6,4 C 99 % 1029,5 hPa 0,0 l/m 4,4 km/h (1 Bft) W-NW 285 0 min 21 W/m 6,3 C 6,4 C 6,4 km/h (2 Bft)
21.12.2017 14:27 6,4 C 99 % 1029,7 hPa 0,0 l/m 5,2 km/h (1 Bft) W-SW 257 0 min 19 W/m 6,3 C 6,4 C 9,7 km/h (2 Bft)
21.12.2017 14:30 6,4 C 99 % 1029,7 hPa 0,0 l/m 4,8 km/h (1 Bft) W 269 0 min 19 W/m 6,3 C 6,4 C 11,3 km/h (2 Bft)
21.12.2017 14:33 6,4 C 99 % 1029,7 hPa 0,0 l/m 4,5 km/h (1 Bft) N-NW 330 0 min 18 W/m 6,3 C 6,4 C 12,9 km/h (3 Bft)
21.12.2017 14:36 6,4 C 99 % 1029,7 hPa 0,0 l/m 4,9 km/h (1 Bft) W 281 0 min 18 W/m 6,3 C 6,4 C 9,7 km/h (2 Bft)
21.12.2017 14:39 6,4 C 99 % 1029,7 hPa 0,0 l/m 4,8 km/h (1 Bft) W 278 0 min 18 W/m 6,3 C 6,4 C 9,7 km/h (2 Bft)
21.12.2017 14:42 6,4 C 99 % 1029,7 hPa 0,0 l/m 4,8 km/h (1 Bft) W-NW 293 0 min 14 W/m 6,3 C 6,4 C 12,9 km/h (3 Bft)
21.12.2017 14:45 6,4 C 99 % 1029,6 hPa 0,0 l/m 5,3 km/h (1 Bft) W 281 0 min 12 W/m 6,3 C 6,4 C 11,3 km/h (2 Bft)
21.12.2017 14:48 6,4 C 99 % 1029,6 hPa 0,0 l/m 4,1 km/h (1 Bft) W-NW 293 0 min 16 W/m 6,3 C 6,4 C 6,4 km/h (2 Bft)
21.12.2017 14:51 6,4 C 99 % 1029,6 hPa 0,0 l/m 4,4 km/h (1 Bft) W-NW 289 0 min 19 W/m 6,3 C 6,4 C 9,7 km/h (2 Bft)
21.12.2017 14:54 6,3 C 99 % 1029,7 hPa 0,0 l/m 3,9 km/h (1 Bft) W-NW 283 0 min 16 W/m 6,2 C 6,3 C 6,4 km/h (2 Bft)
21.12.2017 14:57 6,3 C 99 % 1029,9 hPa 0,0 l/m 4,6 km/h (1 Bft) NW 322 0 min 14 W/m 6,2 C 6,3 C 9,7 km/h (2 Bft)
21.12.2017 15:00 6,3 C 99 % 1029,9 hPa 0,0 l/m 5,2 km/h (1 Bft) W-NW 291 0 min 18 W/m 6,2 C 6,3 C 11,3 km/h (2 Bft)
21.12.2017 15:03 6,3 C 99 % 1029,9 hPa 0,0 l/m 4,7 km/h (1 Bft) W 272 0 min 21 W/m 6,2 C 6,3 C 9,7 km/h (2 Bft)
21.12.2017 15:06 6,3 C 99 % 1029,9 hPa 0,0 l/m 2,2 km/h (1 Bft) W 272 0 min 18 W/m 6,2 C 6,3 C 4,8 km/h (1 Bft)
21.12.2017 15:09 6,3 C 99 % 1029,8 hPa 0,0 l/m 4,9 km/h (1 Bft) W-NW 293 0 min 19 W/m 6,2 C 6,3 C 11,3 km/h (2 Bft)
21.12.2017 15:12 6,3 C 99 % 1029,9 hPa 0,0 l/m 3,7 km/h (1 Bft) NW 311 0 min 23 W/m 6,2 C 6,3 C 6,4 km/h (2 Bft)
21.12.2017 15:15 6,3 C 99 % 1029,9 hPa 0,0 l/m 5,3 km/h (1 Bft) W 272 0 min 21 W/m 6,2 C 6,3 C 11,3 km/h (2 Bft)
21.12.2017 15:18 6,3 C 99 % 1029,8 hPa 0,0 l/m 5,6 km/h (2 Bft) W-NW 283 0 min 12 W/m 6,2 C 6,3 C 11,3 km/h (2 Bft)
21.12.2017 15:21 6,3 C 99 % 1029,8 hPa 0,0 l/m 3,6 km/h (1 Bft) W-NW 283 0 min 11 W/m 6,2 C 6,3 C 6,4 km/h (2 Bft)
21.12.2017 15:24 6,3 C 99 % 1029,7 hPa 0,0 l/m 5,2 km/h (1 Bft) W-NW 293 0 min 11 W/m 6,2 C 6,3 C 9,7 km/h (2 Bft)
21.12.2017 15:27 6,4 C 99 % 1029,7 hPa 0,0 l/m 3,5 km/h (1 Bft) W 279 0 min 12 W/m 6,3 C 6,4 C 6,4 km/h (2 Bft)
21.12.2017 15:30 6,4 C 99 % 1029,7 hPa 0,0 l/m 3,8 km/h (1 Bft) W 281 0 min 16 W/m 6,3 C 6,4 C 4,8 km/h (1 Bft)
21.12.2017 15:33 6,3 C 99 % 1029,8 hPa 0,0 l/m 4,5 km/h (1 Bft) W 273 0 min 16 W/m 6,2 C 6,3 C 6,4 km/h (2 Bft)
21.12.2017 15:36 6,3 C 99 % 1029,8 hPa 0,0 l/m 4,8 km/h (1 Bft) W-SW 254 0 min 14 W/m 6,2 C 6,3 C 9,7 km/h (2 Bft)
21.12.2017 15:39 6,3 C 99 % 1029,8 hPa 0,0 l/m 4,2 km/h (1 Bft) W 262 0 min 11 W/m 6,2 C 6,3 C 9,7 km/h (2 Bft)
21.12.2017 15:42 6,3 C 99 % 1029,9 hPa 0,0 l/m 4,2 km/h (1 Bft) W 265 0 min 11 W/m 6,2 C 6,3 C 9,7 km/h (2 Bft)
21.12.2017 15:45 6,3 C 99 % 1029,9 hPa 0,0 l/m 4,1 km/h (1 Bft) W 265 0 min 11 W/m 6,2 C 6,3 C 9,7 km/h (2 Bft)
21.12.2017 15:48 6,3 C 99 % 1030,0 hPa 0,0 l/m 4,7 km/h (1 Bft) W 269 0 min 7 W/m 6,2 C 6,3 C 9,7 km/h (2 Bft)
21.12.2017 15:51 6,3 C 99 % 1030,0 hPa 0,0 l/m 4,6 km/h (1 Bft) W 272 0 min 7 W/m 6,2 C 6,3 C 9,7 km/h (2 Bft)
21.12.2017 15:54 6,3 C 99 % 1030,0 hPa 0,0 l/m 4,7 km/h (1 Bft) W 275 0 min 5 W/m 6,2 C 6,3 C 9,7 km/h (2 Bft)
21.12.2017 15:57 6,3 C 99 % 1030,0 hPa 0,0 l/m 4,7 km/h (1 Bft) W 273 0 min 0 W/m 6,2 C 6,3 C 9,7 km/h (2 Bft)
21.12.2017 16:00 6,3 C 99 % 1030,0 hPa 0,0 l/m 4,7 km/h (1 Bft) W 271 0 min 0 W/m 6,2 C 6,3 C 9,7 km/h (2 Bft)
21.12.2017 16:03 6,3 C 99 % 1029,9 hPa 0,0 l/m 4,1 km/h (1 Bft) W 259 0 min 0 W/m 6,2 C 6,3 C 9,7 km/h (2 Bft)
21.12.2017 16:06 6,3 C 99 % 1029,9 hPa 0,0 l/m 5,1 km/h (1 Bft) W-SW 248 0 min 0 W/m 6,2 C 6,3 C 8,0 km/h (2 Bft)
21.12.2017 16:09 6,2 C 99 % 1029,9 hPa 0,0 l/m 4,7 km/h (1 Bft) W-SW 242 0 min 0 W/m 6,1 C 6,2 C 6,4 km/h (2 Bft)
21.12.2017 16:12 6,2 C 99 % 1030,1 hPa 0,0 l/m 5,0 km/h (1 Bft) W 279 0 min 0 W/m 6,1 C 6,2 C 9,7 km/h (2 Bft)
21.12.2017 16:15 6,2 C 98 % 1030,2 hPa 0,0 l/m 6,2 km/h (2 Bft) W-SW 245 0 min 0 W/m 5,9 C 6,2 C 12,9 km/h (3 Bft)
21.12.2017 16:18 6,2 C 98 % 1030,0 hPa 0,0 l/m 5,5 km/h (2 Bft) W 263 0 min 0 W/m 5,9 C 6,2 C 9,7 km/h (2 Bft)
21.12.2017 16:21 6,1 C 98 % 1029,9 hPa 0,0 l/m 5,4 km/h (2 Bft) W-SW 238 0 min 0 W/m 5,8 C 6,1 C 9,7 km/h (2 Bft)
21.12.2017 16:24 6,2 C 98 % 1029,9 hPa 0,0 l/m 5,4 km/h (2 Bft) SW 225 0 min 0 W/m 5,9 C 6,2 C 8,0 km/h (2 Bft)
21.12.2017 16:27 6,2 C 98 % 1030,0 hPa 0,0 l/m 4,0 km/h (1 Bft) SW 225 0 min 0 W/m 5,9 C 6,2 C 6,4 km/h (2 Bft)
21.12.2017 16:30 6,2 C 98 % 1030,1 hPa 0,0 l/m 5,5 km/h (2 Bft) W-SW 242 0 min 0 W/m 5,9 C 6,2 C 8,0 km/h (2 Bft)
21.12.2017 16:33 6,2 C 99 % 1030,1 hPa 0,0 l/m 5,2 km/h (1 Bft) W-SW 252 0 min 0 W/m 6,1 C 6,2 C 8,0 km/h (2 Bft)
21.12.2017 16:36 6,2 C 99 % 1030,3 hPa 0,0 l/m 5,1 km/h (1 Bft) W-SW 256 0 min 0 W/m 6,1 C 6,2 C 6,4 km/h (2 Bft)
21.12.2017 16:39 6,3 C 99 % 1030,3 hPa 0,0 l/m 7,7 km/h (2 Bft) W 261 0 min 0 W/m 6,2 C 5,2 C 16,1 km/h (3 Bft)
21.12.2017 16:42 6,3 C 99 % 1030,3 hPa 0,0 l/m 7,1 km/h (2 Bft) W-SW 238 0 min 0 W/m 6,2 C 5,7 C 14,5 km/h (3 Bft)
21.12.2017 16:45 6,3 C 99 % 1030,4 hPa 0,0 l/m 7,4 km/h (2 Bft) W 263 0 min 0 W/m 6,2 C 5,5 C 12,9 km/h (3 Bft)
21.12.2017 16:48 6,3 C 99 % 1030,4 hPa 0,0 l/m 7,5 km/h (2 Bft) SW 236 0 min 0 W/m 6,2 C 5,4 C 12,9 km/h (3 Bft)
21.12.2017 16:51 6,3 C 99 % 1030,3 hPa 0,0 l/m 7,6 km/h (2 Bft) W-SW 245 0 min 0 W/m 6,2 C 5,3 C 17,7 km/h (3 Bft)
21.12.2017 16:54 6,3 C 99 % 1030,2 hPa 0,0 l/m 10,0 km/h (2 Bft) S-SW 207 0 min 0 W/m 6,2 C 3,5 C 17,7 km/h (3 Bft)
21.12.2017 16:57 6,3 C 99 % 1030,2 hPa 0,2 l/m 9,0 km/h (2 Bft) W-SW 240 0 min 0 W/m 6,2 C 4,2 C 17,7 km/h (3 Bft)
21.12.2017 17:00 6,3 C 99 % 1030,2 hPa 0,0 l/m 8,0 km/h (2 Bft) W-SW 254 0 min 0 W/m 6,2 C 5,0 C 17,7 km/h (3 Bft)
21.12.2017 17:03 6,3 C 99 % 1030,1 hPa 0,0 l/m 10,7 km/h (2 Bft) W-SW 255 0 min 0 W/m 6,2 C 3,0 C 17,7 km/h (3 Bft)
21.12.2017 17:06 6,3 C 99 % 1030,1 hPa 0,0 l/m 8,9 km/h (2 Bft) W 267 0 min 0 W/m 6,2 C 4,3 C 16,1 km/h (3 Bft)
21.12.2017 17:09 6,3 C 99 % 1030,0 hPa 0,0 l/m 9,0 km/h (2 Bft) SW 225 0 min 0 W/m 6,2 C 4,2 C 14,5 km/h (3 Bft)
21.12.2017 17:12 6,3 C 99 % 1029,8 hPa 0,0 l/m 8,2 km/h (2 Bft) SW 224 0 min 0 W/m 6,2 C 4,8 C 14,5 km/h (3 Bft)
21.12.2017 17:15 6,3 C 99 % 1029,8 hPa 0,0 l/m 9,8 km/h (2 Bft) W-SW 246 0 min 0 W/m 6,2 C 3,6 C 14,5 km/h (3 Bft)
21.12.2017 17:18 6,2 C 99 % 1029,8 hPa 0,0 l/m 6,3 km/h (2 Bft) W 275 0 min 0 W/m 6,1 C 6,2 C 11,3 km/h (2 Bft)
21.12.2017 17:21 6,2 C 99 % 1029,8 hPa 0,0 l/m 6,1 km/h (2 Bft) W-SW 257 0 min 0 W/m 6,1 C 6,2 C 11,3 km/h (2 Bft)
21.12.2017 17:24 6,2 C 99 % 1029,8 hPa 0,0 l/m 5,5 km/h (2 Bft) W-SW 241 0 min 0 W/m 6,1 C 6,2 C 9,7 km/h (2 Bft)
21.12.2017 17:27 6,2 C 99 % 1029,9 hPa 0,0 l/m 7,1 km/h (2 Bft) W-SW 237 0 min 0 W/m 6,1 C 5,6 C 11,3 km/h (2 Bft)
21.12.2017 17:30 6,2 C 99 % 1029,9 hPa 0,0 l/m 6,5 km/h (2 Bft) W-SW 253 0 min 0 W/m 6,1 C 6,1 C 16,1 km/h (3 Bft)
21.12.2017 17:33 6,2 C 99 % 1030,0 hPa 0,0 l/m 7,9 km/h (2 Bft) W-SW 249 0 min 0 W/m 6,1 C 4,9 C 19,3 km/h (3 Bft)
21.12.2017 17:36 6,2 C 99 % 1030,0 hPa 0,0 l/m 8,1 km/h (2 Bft) W-SW 245 0 min 0 W/m 6,1 C 4,8 C 12,9 km/h (3 Bft)
21.12.2017 17:39 6,2 C 99 % 1029,9 hPa 0,0 l/m 7,0 km/h (2 Bft) W-SW 244 0 min 0 W/m 6,1 C 5,7 C 14,5 km/h (3 Bft)
21.12.2017 17:42 6,2 C 99 % 1029,8 hPa 0,0 l/m 6,6 km/h (2 Bft) W-SW 242 0 min 0 W/m 6,1 C 6,1 C 12,9 km/h (3 Bft)
21.12.2017 17:45 6,2 C 99 % 1029,8 hPa 0,0 l/m 6,9 km/h (2 Bft) SW 232 0 min 0 W/m 6,1 C 5,8 C 14,5 km/h (3 Bft)
21.12.2017 17:48 6,2 C 99 % 1029,8 hPa 0,0 l/m 7,2 km/h (2 Bft) W-SW 240 0 min 0 W/m 6,1 C 5,5 C 11,3 km/h (2 Bft)
21.12.2017 17:51 6,2 C 98 % 1029,9 hPa 0,0 l/m 8,6 km/h (2 Bft) W-SW 239 0 min 0 W/m 5,9 C 4,4 C 11,3 km/h (2 Bft)
21.12.2017 17:54 6,2 C 98 % 1029,9 hPa 0,0 l/m 6,3 km/h (2 Bft) W-SW 237 0 min 0 W/m 5,9 C 6,2 C 14,5 km/h (3 Bft)
21.12.2017 17:57 6,2 C 98 % 1030,0 hPa 0,0 l/m 7,7 km/h (2 Bft) W-SW 250 0 min 0 W/m 5,9 C 5,1 C 14,5 km/h (3 Bft)
21.12.2017 18:00 6,1 C 98 % 1030,0 hPa 0,0 l/m 6,3 km/h (2 Bft) W-NW 288 0 min 0 W/m 5,8 C 6,1 C 12,9 km/h (3 Bft)
21.12.2017 18:03 6,1 C 98 % 1030,1 hPa 0,0 l/m 6,8 km/h (2 Bft) SW 236 0 min 0 W/m 5,8 C 5,8 C 12,9 km/h (3 Bft)
21.12.2017 18:06 6,1 C 98 % 1030,1 hPa 0,0 l/m 7,4 km/h (2 Bft) SW 215 0 min 0 W/m 5,8 C 5,3 C 14,5 km/h (3 Bft)
21.12.2017 18:09 6,1 C 98 % 1030,1 hPa 0,0 l/m 7,3 km/h (2 Bft) W-SW 256 0 min 0 W/m 5,8 C 5,3 C 17,7 km/h (3 Bft)
21.12.2017 18:12 6,0 C 99 % 1030,0 hPa 0,0 l/m 7,3 km/h (2 Bft) SW 224 0 min 0 W/m 5,9 C 5,2 C 12,9 km/h (3 Bft)
21.12.2017 18:15 6,0 C 99 % 1029,8 hPa 0,0 l/m 6,5 km/h (2 Bft) SW 227 0 min 0 W/m 5,9 C 5,9 C 12,9 km/h (3 Bft)
21.12.2017 18:18 6,0 C 99 % 1029,8 hPa 0,0 l/m 7,0 km/h (2 Bft) S-SW 205 0 min 0 W/m 5,9 C 5,5 C 12,9 km/h (3 Bft)
21.12.2017 18:21 6,0 C 99 % 1029,9 hPa 0,0 l/m 6,0 km/h (2 Bft) SW 225 0 min 0 W/m 5,9 C 6,0 C 11,3 km/h (2 Bft)
21.12.2017 18:24 6,0 C 99 % 1029,9 hPa 0,0 l/m 6,7 km/h (2 Bft) SW 217 0 min 0 W/m 5,9 C 5,8 C 12,9 km/h (3 Bft)
21.12.2017 18:27 6,0 C 99 % 1029,8 hPa 0,0 l/m 7,5 km/h (2 Bft) W-SW 244 0 min 0 W/m 5,9 C 5,1 C 17,7 km/h (3 Bft)
21.12.2017 18:30 6,0 C 99 % 1029,9 hPa 0,0 l/m 8,1 km/h (2 Bft) SW 230 0 min 0 W/m 5,9 C 4,6 C 14,5 km/h (3 Bft)
21.12.2017 18:33 6,0 C 99 % 1029,9 hPa 0,0 l/m 7,8 km/h (2 Bft) SW 234 0 min 0 W/m 5,9 C 4,8 C 12,9 km/h (3 Bft)
21.12.2017 18:36 6,0 C 99 % 1029,9 hPa 0,0 l/m 9,6 km/h (2 Bft) W 261 0 min 0 W/m 5,9 C 3,5 C 17,7 km/h (3 Bft)
21.12.2017 18:39 6,0 C 99 % 1029,9 hPa 0,0 l/m 9,8 km/h (2 Bft) SW 229 0 min 0 W/m 5,9 C 3,3 C 14,5 km/h (3 Bft)
21.12.2017 18:42 6,0 C 99 % 1029,9 hPa 0,0 l/m 9,5 km/h (2 Bft) W-SW 253 0 min 0 W/m 5,9 C 3,5 C 19,3 km/h (3 Bft)
21.12.2017 18:45 5,9 C 99 % 1029,9 hPa 0,0 l/m 12,1 km/h (2 Bft) W-SW 244 0 min 0 W/m 5,8 C 1,7 C 19,3 km/h (3 Bft)
21.12.2017 18:48 5,9 C 99 % 1029,9 hPa 0,0 l/m 11,1 km/h (2 Bft) S-SW 206 0 min 0 W/m 5,8 C 2,3 C 19,3 km/h (3 Bft)
21.12.2017 18:51 5,9 C 99 % 1030,0 hPa 0,0 l/m 8,5 km/h (2 Bft) SW 236 0 min 0 W/m 5,8 C 4,2 C 14,5 km/h (3 Bft)
21.12.2017 18:54 5,9 C 99 % 1030,0 hPa 0,0 l/m 11,3 km/h (2 Bft) S-SW 211 0 min 0 W/m 5,8 C 2,2 C 19,3 km/h (3 Bft)
21.12.2017 18:57 5,9 C 99 % 1030,0 hPa 0,0 l/m 10,2 km/h (2 Bft) W-SW 247 0 min 0 W/m 5,8 C 2,9 C 16,1 km/h (3 Bft)
21.12.2017 19:00 5,9 C 99 % 1029,9 hPa 0,0 l/m 8,5 km/h (2 Bft) W-SW 251 0 min 0 W/m 5,8 C 4,2 C 16,1 km/h (3 Bft)
21.12.2017 19:03 5,9 C 99 % 1029,8 hPa 0,0 l/m 8,3 km/h (2 Bft) W-SW 252 0 min 0 W/m 5,8 C 4,3 C 12,9 km/h (3 Bft)
21.12.2017 19:06 5,8 C 99 % 1029,8 hPa 0,0 l/m 8,2 km/h (2 Bft) W-SW 248 0 min 0 W/m 5,7 C 4,3 C 14,5 km/h (3 Bft)
21.12.2017 19:09 5,9 C 99 % 1029,8 hPa 0,0 l/m 11,3 km/h (2 Bft) S-SW 213 0 min 0 W/m 5,8 C 2,2 C 16,1 km/h (3 Bft)
21.12.2017 19:12 5,8 C 99 % 1029,8 hPa 0,0 l/m 11,1 km/h (2 Bft) SW 231 0 min 0 W/m 5,7 C 2,2 C 16,1 km/h (3 Bft)
21.12.2017 19:15 5,8 C 99 % 1029,8 hPa 0,0 l/m 11,0 km/h (2 Bft) SW 228 0 min 0 W/m 5,7 C 2,3 C 19,3 km/h (3 Bft)
21.12.2017 19:18 5,8 C 99 % 1029,9 hPa 0,0 l/m 9,2 km/h (2 Bft) W 267 0 min 0 W/m 5,7 C 3,5 C 14,5 km/h (3 Bft)
21.12.2017 19:21 5,8 C 98 % 1029,8 hPa 0,0 l/m 9,3 km/h (2 Bft) W-SW 246 0 min 0 W/m 5,5 C 3,4 C 16,1 km/h (3 Bft)
21.12.2017 19:24 5,8 C 99 % 1029,9 hPa 0,0 l/m 9,4 km/h (2 Bft) W 259 0 min 0 W/m 5,7 C 3,4 C 14,5 km/h (3 Bft)
21.12.2017 19:27 5,8 C 98 % 1029,9 hPa 0,0 l/m 10,4 km/h (2 Bft) W-SW 253 0 min 0 W/m 5,5 C 2,7 C 20,9 km/h (4 Bft)
21.12.2017 19:30 5,8 C 98 % 1029,8 hPa 0,0 l/m 8,7 km/h (2 Bft) SW 222 0 min 0 W/m 5,5 C 3,9 C 17,7 km/h (3 Bft)
21.12.2017 19:33 5,8 C 98 % 1029,9 hPa 0,0 l/m 10,5 km/h (2 Bft) W 265 0 min 0 W/m 5,5 C 2,6 C 17,7 km/h (3 Bft)
21.12.2017 19:36 5,8 C 98 % 1029,9 hPa 0,0 l/m 11,5 km/h (2 Bft) SW 225 0 min 0 W/m 5,5 C 2,0 C 19,3 km/h (3 Bft)
21.12.2017 19:39 5,8 C 98 % 1029,9 hPa 0,0 l/m 11,6 km/h (2 Bft) SW 216 0 min 0 W/m 5,5 C 1,9 C 19,3 km/h (3 Bft)
21.12.2017 19:42 5,8 C 98 % 1030,0 hPa 0,0 l/m 11,9 km/h (2 Bft) SW 215 0 min 0 W/m 5,5 C 1,7 C 19,3 km/h (3 Bft)
21.12.2017 19:45 5,8 C 98 % 1030,0 hPa 0,0 l/m 12,5 km/h (2 Bft) SW 217 0 min 0 W/m 5,5 C 1,4 C 20,9 km/h (4 Bft)
21.12.2017 19:48 5,8 C 98 % 1029,9 hPa 0,0 l/m 10,2 km/h (2 Bft) W-SW 246 0 min 0 W/m 5,5 C 2,8 C 19,3 km/h (3 Bft)
21.12.2017 19:51 5,8 C 98 % 1030,0 hPa 0,0 l/m 9,8 km/h (2 Bft) S-SW 209 0 min 0 W/m 5,5 C 3,1 C 17,7 km/h (3 Bft)
21.12.2017 19:54 5,8 C 98 % 1030,0 hPa 0,0 l/m 11,5 km/h (2 Bft) W 261 0 min 0 W/m 5,5 C 2,0 C 19,3 km/h (3 Bft)
21.12.2017 19:57 5,8 C 98 % 1029,9 hPa 0,0 l/m 12,5 km/h (2 Bft) SW 227 0 min 0 W/m 5,5 C 1,4 C 22,5 km/h (4 Bft)
21.12.2017 20:00 5,8 C 98 % 1029,9 hPa 0,0 l/m 11,9 km/h (2 Bft) W 277 0 min 0 W/m 5,5 C 1,7 C 17,7 km/h (3 Bft)
21.12.2017 20:03 5,7 C 98 % 1030,0 hPa 0,0 l/m 13,6 km/h (3 Bft) SW 218 0 min 0 W/m 5,4 C 0,7 C 25,7 km/h (4 Bft)
21.12.2017 20:06 5,7 C 98 % 1030,0 hPa 0,0 l/m 12,9 km/h (3 Bft) SW 218 0 min 0 W/m 5,4 C 1,0 C 19,3 km/h (3 Bft)
21.12.2017 20:09 5,7 C 98 % 1030,0 hPa 0,0 l/m 9,3 km/h (2 Bft) SW 228 0 min 0 W/m 5,4 C 3,3 C 16,1 km/h (3 Bft)
21.12.2017 20:12 5,7 C 98 % 1030,0 hPa 0,0 l/m 10,9 km/h (2 Bft) W-SW 251 0 min 0 W/m 5,4 C 2,2 C 19,3 km/h (3 Bft)
21.12.2017 20:15 5,8 C 98 % 1030,0 hPa 0,0 l/m 9,0 km/h (2 Bft) SW 232 0 min 0 W/m 5,5 C 3,7 C 16,1 km/h (3 Bft)
21.12.2017 20:18 5,8 C 98 % 1029,9 hPa 0,0 l/m 11,7 km/h (2 Bft) SW 227 0 min 0 W/m 5,5 C 1,9 C 22,5 km/h (4 Bft)
21.12.2017 20:21 5,8 C 98 % 1030,0 hPa 0,0 l/m 10,9 km/h (2 Bft) W-SW 246 0 min 0 W/m 5,5 C 2,4 C 19,3 km/h (3 Bft)
21.12.2017 20:24 5,8 C 98 % 1030,0 hPa 0,0 l/m 11,0 km/h (2 Bft) W 259 0 min 0 W/m 5,5 C 2,3 C 19,3 km/h (3 Bft)
21.12.2017 20:27 5,8 C 98 % 1030,0 hPa 0,0 l/m 10,2 km/h (2 Bft) W-SW 242 0 min 0 W/m 5,5 C 2,8 C 19,3 km/h (3 Bft)
21.12.2017 20:30 5,9 C 99 % 1030,0 hPa 0,0 l/m 9,1 km/h (2 Bft) W 268 0 min 0 W/m 5,8 C 3,7 C 17,7 km/h (3 Bft)
21.12.2017 20:33 5,9 C 99 % 1030,0 hPa 0,0 l/m 8,2 km/h (2 Bft) W-NW 290 0 min 0 W/m 5,8 C 4,4 C 14,5 km/h (3 Bft)
21.12.2017 20:36 5,9 C 99 % 1030,0 hPa 0,0 l/m 9,2 km/h (2 Bft) W-SW 244 0 min 0 W/m 5,8 C 3,6 C 19,3 km/h (3 Bft)
21.12.2017 20:39 5,9 C 99 % 1030,1 hPa 0,0 l/m 12,2 km/h (2 Bft) SW 227 0 min 0 W/m 5,8 C 1,7 C 24,1 km/h (4 Bft)
21.12.2017 20:42 5,9 C 99 % 1030,1 hPa 0,0 l/m 12,6 km/h (3 Bft) W-SW 257 0 min 0 W/m 5,8 C 1,4 C 19,3 km/h (3 Bft)
21.12.2017 20:45 5,9 C 99 % 1030,1 hPa 0,0 l/m 12,4 km/h (2 Bft) W-SW 257 0 min 0 W/m 5,8 C 1,6 C 17,7 km/h (3 Bft)
21.12.2017 20:48 6,0 C 99 % 1030,1 hPa 0,0 l/m 11,0 km/h (2 Bft) W 272 0 min 0 W/m 5,9 C 2,5 C 20,9 km/h (4 Bft)
21.12.2017 20:51 6,0 C 99 % 1030,1 hPa 0,0 l/m 10,3 km/h (2 Bft) W-SW 246 0 min 0 W/m 5,9 C 3,0 C 19,3 km/h (3 Bft)
21.12.2017 20:54 6,0 C 99 % 1030,1 hPa 0,0 l/m 10,6 km/h (2 Bft) SW 222 0 min 0 W/m 5,9 C 2,8 C 19,3 km/h (3 Bft)
21.12.2017 20:57 6,0 C 99 % 1030,1 hPa 0,0 l/m 11,5 km/h (2 Bft) W-SW 257 0 min 0 W/m 5,9 C 2,2 C 20,9 km/h (4 Bft)
21.12.2017 21:00 6,0 C 99 % 1030,1 hPa 0,0 l/m 11,9 km/h (2 Bft) W 272 0 min 0 W/m 5,9 C 2,0 C 22,5 km/h (4 Bft)
21.12.2017 21:03 6,0 C 99 % 1030,2 hPa 0,0 l/m 7,6 km/h (2 Bft) SW 227 0 min 0 W/m 5,9 C 5,0 C 14,5 km/h (3 Bft)
21.12.2017 21:06 6,0 C 99 % 1030,3 hPa 0,0 l/m 8,5 km/h (2 Bft) W 261 0 min 0 W/m 5,9 C 4,3 C 16,1 km/h (3 Bft)
21.12.2017 21:09 6,0 C 99 % 1030,3 hPa 0,0 l/m 9,1 km/h (2 Bft) W-SW 252 0 min 0 W/m 5,9 C 3,8 C 14,5 km/h (3 Bft)
21.12.2017 21:12 5,9 C 99 % 1030,3 hPa 0,0 l/m 9,1 km/h (2 Bft) S-SW 208 0 min 0 W/m 5,8 C 3,7 C 12,9 km/h (3 Bft)
21.12.2017 21:15 5,9 C 99 % 1030,3 hPa 0,0 l/m 6,7 km/h (2 Bft) SW 226 0 min 0 W/m 5,8 C 5,7 C 11,3 km/h (2 Bft)
21.12.2017 21:18 5,9 C 99 % 1030,3 hPa 0,0 l/m 7,8 km/h (2 Bft) W 281 0 min 0 W/m 5,8 C 4,7 C 12,9 km/h (3 Bft)
21.12.2017 21:21 5,9 C 99 % 1030,3 hPa 0,0 l/m 11,4 km/h (2 Bft) W-SW 249 0 min 0 W/m 5,8 C 2,2 C 16,1 km/h (3 Bft)
21.12.2017 21:24 5,9 C 99 % 1030,2 hPa 0,0 l/m 8,9 km/h (2 Bft) SW 225 0 min 0 W/m 5,8 C 3,9 C 16,1 km/h (3 Bft)
21.12.2017 21:27 5,9 C 99 % 1030,2 hPa 0,0 l/m 11,1 km/h (2 Bft) SW 221 0 min 0 W/m 5,8 C 2,3 C 17,7 km/h (3 Bft)
21.12.2017 21:30 5,9 C 99 % 1030,3 hPa 0,0 l/m 10,8 km/h (2 Bft) SW 224 0 min 0 W/m 5,8 C 2,5 C 17,7 km/h (3 Bft)
21.12.2017 21:33 5,9 C 99 % 1030,3 hPa 0,0 l/m 10,5 km/h (2 Bft) W 273 0 min 0 W/m 5,8 C 2,7 C 17,7 km/h (3 Bft)
21.12.2017 21:36 5,9 C 99 % 1030,3 hPa 0,0 l/m 9,3 km/h (2 Bft) W 273 0 min 0 W/m 5,8 C 3,6 C 17,7 km/h (3 Bft)
21.12.2017 21:39 5,9 C 99 % 1030,3 hPa 0,0 l/m 8,5 km/h (2 Bft) SW 236 0 min 0 W/m 5,8 C 4,2 C 14,5 km/h (3 Bft)
21.12.2017 21:42 5,9 C 99 % 1030,2 hPa 0,0 l/m 9,0 km/h (2 Bft) SW 216 0 min 0 W/m 5,8 C 3,8 C 14,5 km/h (3 Bft)
21.12.2017 21:45 6,0 C 99 % 1030,2 hPa 0,0 l/m 9,1 km/h (2 Bft) W 259 0 min 0 W/m 5,9 C 3,8 C 14,5 km/h (3 Bft)
21.12.2017 21:48 6,0 C 99 % 1030,2 hPa 0,0 l/m 10,4 km/h (2 Bft) W-SW 242 0 min 0 W/m 5,9 C 2,9 C 17,7 km/h (3 Bft)
21.12.2017 21:51 6,0 C 99 % 1030,2 hPa 0,0 l/m 6,4 km/h (2 Bft) SW 232 0 min 0 W/m 5,9 C 6,0 C 11,3 km/h (2 Bft)
21.12.2017 21:54 6,1 C 98 % 1030,3 hPa 0,0 l/m 8,9 km/h (2 Bft) W-NW 295 0 min 0 W/m 5,8 C 4,1 C 16,1 km/h (3 Bft)
21.12.2017 21:57 6,1 C 98 % 1030,3 hPa 0,0 l/m 8,4 km/h (2 Bft) W 265 0 min 0 W/m 5,8 C 4,4 C 16,1 km/h (3 Bft)
21.12.2017 22:00 6,1 C 98 % 1030,3 hPa 0,0 l/m 9,4 km/h (2 Bft) W-SW 242 0 min 0 W/m 5,8 C 3,7 C 20,9 km/h (4 Bft)
21.12.2017 22:03 6,1 C 98 % 1030,2 hPa 0,0 l/m 10,6 km/h (2 Bft) W-NW 284 0 min 0 W/m 5,8 C 2,9 C 17,7 km/h (3 Bft)
21.12.2017 22:06 6,2 C 98 % 1030,2 hPa 0,0 l/m 9,8 km/h (2 Bft) W 269 0 min 0 W/m 5,9 C 3,5 C 17,7 km/h (3 Bft)
21.12.2017 22:09 6,2 C 98 % 1030,3 hPa 0,0 l/m 11,4 km/h (2 Bft) W 265 0 min 0 W/m 5,9 C 2,5 C 17,7 km/h (3 Bft)
21.12.2017 22:12 6,2 C 99 % 1030,2 hPa 0,0 l/m 12,2 km/h (2 Bft) W 259 0 min 0 W/m 6,1 C 2,0 C 19,3 km/h (3 Bft)
21.12.2017 22:15 6,2 C 99 % 1030,2 hPa 0,0 l/m 11,5 km/h (2 Bft) W 268 0 min 0 W/m 6,1 C 2,4 C 20,9 km/h (4 Bft)
21.12.2017 22:18 6,3 C 99 % 1030,2 hPa 0,0 l/m 12,4 km/h (2 Bft) W 263 0 min 0 W/m 6,2 C 2,0 C 19,3 km/h (3 Bft)
21.12.2017 22:21 6,3 C 99 % 1030,2 hPa 0,0 l/m 11,5 km/h (2 Bft) W-SW 244 0 min 0 W/m 6,2 C 2,6 C 19,3 km/h (3 Bft)
21.12.2017 22:24 6,3 C 99 % 1030,2 hPa 0,0 l/m 8,9 km/h (2 Bft) SW 227 0 min 0 W/m 6,2 C 4,3 C 12,9 km/h (3 Bft)
21.12.2017 22:27 6,3 C 99 % 1030,1 hPa 0,0 l/m 7,5 km/h (2 Bft) W 270 0 min 0 W/m 6,2 C 5,4 C 12,9 km/h (3 Bft)
21.12.2017 22:30 6,3 C 99 % 1030,1 hPa 0,0 l/m 6,5 km/h (2 Bft) W-SW 246 0 min 0 W/m 6,2 C 6,2 C 11,3 km/h (2 Bft)
21.12.2017 22:33 6,2 C 99 % 1030,1 hPa 0,0 l/m 7,0 km/h (2 Bft) SW 229 0 min 0 W/m 6,1 C 5,7 C 11,3 km/h (2 Bft)
21.12.2017 22:36 6,2 C 99 % 1030,1 hPa 0,0 l/m 5,2 km/h (1 Bft) W-SW 238 0 min 0 W/m 6,1 C 6,2 C 9,7 km/h (2 Bft)
21.12.2017 22:39 6,2 C 98 % 1030,0 hPa 0,0 l/m 5,9 km/h (2 Bft) W 261 0 min 0 W/m 5,9 C 6,2 C 14,5 km/h (3 Bft)
21.12.2017 22:42 6,2 C 98 % 1030,0 hPa 0,0 l/m 7,1 km/h (2 Bft) W-SW 258 0 min 0 W/m 5,9 C 5,6 C 14,5 km/h (3 Bft)
21.12.2017 22:45 6,2 C 98 % 1030,0 hPa 0,0 l/m 6,0 km/h (2 Bft) W 268 0 min 0 W/m 5,9 C 6,2 C 11,3 km/h (2 Bft)
21.12.2017 22:48 6,2 C 98 % 1030,1 hPa 0,0 l/m 6,8 km/h (2 Bft) W-SW 252 0 min 0 W/m 5,9 C 5,9 C 12,9 km/h (3 Bft)
21.12.2017 22:51 6,2 C 98 % 1030,0 hPa 0,0 l/m 4,8 km/h (1 Bft) SW 235 0 min 0 W/m 5,9 C 6,2 C 9,7 km/h (2 Bft)
21.12.2017 22:54 6,2 C 98 % 1030,1 hPa 0,0 l/m 5,0 km/h (1 Bft) W 277 0 min 0 W/m 5,9 C 6,2 C 9,7 km/h (2 Bft)
21.12.2017 22:57 6,1 C 98 % 1030,1 hPa 0,0 l/m 5,3 km/h (1 Bft) SW 222 0 min 0 W/m 5,8 C 6,1 C 8,0 km/h (2 Bft)
21.12.2017 23:00 6,1 C 98 % 1030,1 hPa 0,0 l/m 6,3 km/h (2 Bft) W 267 0 min 0 W/m 5,8 C 6,1 C 11,3 km/h (2 Bft)
21.12.2017 23:03 6,1 C 98 % 1030,1 hPa 0,0 l/m 4,9 km/h (1 Bft) SW 233 0 min 0 W/m 5,8 C 6,1 C 9,7 km/h (2 Bft)
21.12.2017 23:06 6,1 C 98 % 1030,2 hPa 0,0 l/m 7,1 km/h (2 Bft) W-SW 249 0 min 0 W/m 5,8 C 5,5 C 14,5 km/h (3 Bft)
21.12.2017 23:09 6,1 C 98 % 1030,2 hPa 0,0 l/m 7,3 km/h (2 Bft) SW 230 0 min 0 W/m 5,8 C 5,3 C 12,9 km/h (3 Bft)
21.12.2017 23:12 6,1 C 98 % 1030,2 hPa 0,0 l/m 6,3 km/h (2 Bft) SW 232 0 min 0 W/m 5,8 C 6,1 C 11,3 km/h (2 Bft)
21.12.2017 23:15 6,2 C 98 % 1030,2 hPa 0,0 l/m 8,9 km/h (2 Bft) SW 220 0 min 0 W/m 5,9 C 4,2 C 14,5 km/h (3 Bft)
21.12.2017 23:18 6,2 C 98 % 1030,2 hPa 0,0 l/m 6,2 km/h (2 Bft) SW 231 0 min 0 W/m 5,9 C 6,2 C 16,1 km/h (3 Bft)
21.12.2017 23:21 6,2 C 99 % 1030,2 hPa 0,0 l/m 6,7 km/h (2 Bft) SW 215 0 min 0 W/m 6,1 C 6,0 C 12,9 km/h (3 Bft)
21.12.2017 23:24 6,2 C 99 % 1030,3 hPa 0,0 l/m 7,9 km/h (2 Bft) SW 234 0 min 0 W/m 6,1 C 4,9 C 19,3 km/h (3 Bft)
21.12.2017 23:27 6,2 C 99 % 1030,2 hPa 0,0 l/m 7,2 km/h (2 Bft) SW 215 0 min 0 W/m 6,1 C 5,5 C 11,3 km/h (2 Bft)
21.12.2017 23:30 6,2 C 99 % 1030,2 hPa 0,0 l/m 6,2 km/h (2 Bft) SW 231 0 min 0 W/m 6,1 C 6,2 C 12,9 km/h (3 Bft)
21.12.2017 23:33 6,2 C 99 % 1030,2 hPa 0,0 l/m 6,9 km/h (2 Bft) W-SW 257 0 min 0 W/m 6,1 C 5,8 C 14,5 km/h (3 Bft)
21.12.2017 23:36 6,2 C 99 % 1030,2 hPa 0,0 l/m 7,6 km/h (2 Bft) W-SW 238 0 min 0 W/m 6,1 C 5,2 C 14,5 km/h (3 Bft)
21.12.2017 23:39 6,2 C 98 % 1030,2 hPa 0,0 l/m 6,8 km/h (2 Bft) W 274 0 min 0 W/m 5,9 C 5,9 C 12,9 km/h (3 Bft)
21.12.2017 23:42 6,1 C 98 % 1030,2 hPa 0,0 l/m 9,9 km/h (2 Bft) W-SW 243 0 min 0 W/m 5,8 C 3,4 C 17,7 km/h (3 Bft)
21.12.2017 23:45 6,1 C 98 % 1030,3 hPa 0,0 l/m 7,6 km/h (2 Bft) W-SW 257 0 min 0 W/m 5,8 C 5,1 C 14,5 km/h (3 Bft)
21.12.2017 23:48 6,1 C 98 % 1030,3 hPa 0,0 l/m 7,5 km/h (2 Bft) W-SW 241 0 min 0 W/m 5,8 C 5,2 C 14,5 km/h (3 Bft)
21.12.2017 23:51 6,1 C 98 % 1030,3 hPa 0,0 l/m 8,3 km/h (2 Bft) SW 236 0 min 0 W/m 5,8 C 4,5 C 11,3 km/h (2 Bft)
21.12.2017 23:54 6,1 C 98 % 1030,3 hPa 0,0 l/m 8,6 km/h (2 Bft) S-SW 201 0 min 0 W/m 5,8 C 4,3 C 16,1 km/h (3 Bft)
21.12.2017 23:57 6,1 C 98 % 1030,3 hPa 0,0 l/m 8,9 km/h (2 Bft) W-SW 237 0 min 0 W/m 5,8 C 4,1 C 14,5 km/h (3 Bft)
_ Min-Zeit 06:21 05:48 02:09 - 06:39 - - - - 20:03 20:03 06:21
Minimum _ 5,7 C 98 % 1028,6 hPa - 1,9 km/h (1 Bft) - - - - 5,4 C 0,7 C 4,8 km/h (1 Bft)
_ Max-Zeit 04:51 00:00 11:21 00:39 03:03 - - 00:00 11:57 04:51 04:51 00:00
Maximum _ 6,8 C 99 % 1030,5 hPa 0,2 l/m 14,2 km/h
W-SW (3 Bft)
- - 0 min 70 W/m 6,7 C 6,8 C 25,7 km/h
W-SW (4 Bft)
Durchschnitt _ 6,2 C 99 % 1029,6 hPa #1,2 l/m 7,1 km/h (2 Bft) W - #0 min. 32 W/m 6,1 C 5,1 C 13,4 km/h (3 Bft)
2017 Cux-Wetter.de -Die Nutzung der Wetterdaten nur mit ausdrcklicher Genehmigung